Observation data for Dell City 1N on 02/22/2019      Previous  Date  Next       Current Mesonet Observations  Soil Data  Daily Summary Page  Observations in Plain Language
KDC1 220600Z 28009KT 04/M11 A2982 RMK A01 T00371105  RH  035%=      5-min Rain = 0
KDC1 220601Z 29008KT 04/M11 A2982 RMK A01 T00371108  RH  034%=      5-min Rain = 0
KDC1 220602Z 30008KT 04/M11 A2982 RMK A01 T00371108  RH  034%=      5-min Rain = 0
KDC1 220603Z 31008KT 04/M11 A2982 RMK A01 T00371109  RH  034%=      5-min Rain = 0
KDC1 220604Z 30008KT 04/M11 A2982 RMK A01 T00371109  RH  034%=      5-min Rain = 0
KDC1 220605Z 29010KT 04/M11 A2982 RMK A01 T00371108  RH  034%=      5-min Rain = 0
KDC1 220606Z 28011KT 04/M11 A2983 RMK A01 T00371108  RH  034%=      5-min Rain = 0
KDC1 220607Z 29009KT 04/M11 A2983 RMK A01 T00361110  RH  034%=      5-min Rain = 0
KDC1 220608Z 30008KT 04/M11 A2982 RMK A01 T00371112  RH  033%=      5-min Rain = 0
KDC1 220609Z 30007KT 04/M11 A2982 RMK A01 T00381112  RH  032%=      5-min Rain = 0
KDC1 220610Z 31007KT 04/M11 A2982 RMK A01 T00391112  RH  032%=      5-min Rain = 0
KDC1 220611Z 31007KT 04/M11 A2982 RMK A01 T00401111  RH  032%=      5-min Rain = 0
KDC1 220612Z 29008KT 04/M11 A2982 RMK A01 T00401111  RH  032%=      5-min Rain = 0
KDC1 220613Z 28010KT 04/M11 A2982 RMK A01 T00401110  RH  032%=      5-min Rain = 0
KDC1 220614Z 28010KT 04/M11 A2982 RMK A01 T00381111  RH  033%=      5-min Rain = 0
KDC1 220615Z 29010KT 04/M11 A2982 RMK A01 T00381112  RH  032%=      5-min Rain = 0
KDC1 220616Z 29009KT 04/M11 A2982 RMK A01 T00381113  RH  032%=      5-min Rain = 0
KDC1 220617Z 29009KT 04/M11 A2982 RMK A01 T00391114  RH  032%=      5-min Rain = 0
KDC1 220618Z 29010KT 04/M11 A2982 RMK A01 T00381113  RH  032%=      5-min Rain = 0
KDC1 220619Z 29009KT 04/M11 A2982 RMK A01 T00371114  RH  032%=      5-min Rain = 0
KDC1 220620Z 29009KT 04/M11 A2982 RMK A01 T00361114  RH  032%=      5-min Rain = 0
KDC1 220621Z 29010KT 04/M11 A2982 RMK A01 T00351114  RH  033%=      5-min Rain = 0
KDC1 220622Z 29010KT 04/M11 A2982 RMK A01 T00351114  RH  033%=      5-min Rain = 0
KDC1 220623Z 29010KT 03/M11 A2982 RMK A01 T00341113  RH  033%=      5-min Rain = 0
KDC1 220624Z 29009KT 03/M11 A2982 RMK A01 T00341113  RH  033%=      5-min Rain = 0
KDC1 220625Z 29010KT 03/M11 A2982 RMK A01 T00341114  RH  033%=      5-min Rain = 0
KDC1 220626Z 29010KT 03/M11 A2982 RMK A01 T00341114  RH  033%=      5-min Rain = 0
KDC1 220627Z 28010KT 03/M11 A2982 RMK A01 T00331114  RH  033%=      5-min Rain = 0
KDC1 220628Z 28010KT 03/M12 A2982 RMK A01 T00341116  RH  032%=      5-min Rain = 0
KDC1 220629Z 28010KT 04/M12 A2982 RMK A01 T00351117  RH  032%=      5-min Rain = 0
KDC1 220630Z 29008KT 04/M12 A2982 RMK A01 T00351117  RH  032%=      5-min Rain = 0
KDC1 220631Z 29009KT 04/M12 A2982 RMK A01 T00351118  RH  032%=      5-min Rain = 0
KDC1 220632Z 29010KT 04/M12 A2982 RMK A01 T00361118  RH  031%=      5-min Rain = 0
KDC1 220633Z 29011KT 04/M12 A2982 RMK A01 T00371117  RH  031%=      5-min Rain = 0
KDC1 220634Z 29010KT 04/M12 A2982 RMK A01 T00381118  RH  031%=      5-min Rain = 0
KDC1 220635Z 29009KT 04/M12 A2982 RMK A01 T00391118  RH  031%=      5-min Rain = 0
KDC1 220636Z 29009KT 04/M12 A2982 RMK A01 T00391117  RH  031%=      5-min Rain = 0
KDC1 220637Z 29008KT 04/M12 A2982 RMK A01 T00391117  RH  031%=      5-min Rain = 0
KDC1 220638Z 29009KT 04/M12 A2982 RMK A01 T00391117  RH  031%=      5-min Rain = 0
KDC1 220639Z 28011KT 04/M12 A2982 RMK A01 T00371117  RH  031%=      5-min Rain = 0
KDC1 220640Z 29010KT 04/M12 A2982 RMK A01 T00351118  RH  032%=      5-min Rain = 0
KDC1 220641Z 29010KT 04/M12 A2982 RMK A01 T00361119  RH  031%=      5-min Rain = 0
KDC1 220642Z 30009KT 04/M12 A2982 RMK A01 T00381119  RH  031%=      5-min Rain = 0
KDC1 220643Z 29009KT 04/M12 A2982 RMK A01 T00401120  RH  030%=      5-min Rain = 0
KDC1 220644Z 28009KT 04/M12 A2982 RMK A01 T00411119  RH  030%=      5-min Rain = 0
KDC1 220645Z 29009KT 04/M12 A2982 RMK A01 T00391120  RH  030%=      5-min Rain = 0
KDC1 220646Z 28009KT 04/M12 A2982 RMK A01 T00391120  RH  030%=      5-min Rain = 0
KDC1 220647Z 28009KT 04/M12 A2982 RMK A01 T00401121  RH  030%=      5-min Rain = 0
KDC1 220648Z 27010KT 04/M12 A2982 RMK A01 T00411121  RH  030%=      5-min Rain = 0
KDC1 220649Z 27011KT 04/M12 A2983 RMK A01 T00411121  RH  030%=      5-min Rain = 0
KDC1 220650Z 28010KT 04/M12 A2982 RMK A01 T00401122  RH  030%=      5-min Rain = 0
KDC1 220651Z 28011KT 04/M12 A2982 RMK A01 T00391122  RH  030%=      5-min Rain = 0
KDC1 220652Z 28010KT 04/M12 A2982 RMK A01 T00391121  RH  030%=      5-min Rain = 0
KDC1 220653Z 29010KT 04/M12 A2982 RMK A01 T00391121  RH  030%=      5-min Rain = 0
KDC1 220654Z 28011KT 04/M12 A2982 RMK A01 T00401121  RH  030%=      5-min Rain = 0
KDC1 220655Z 28011KT 04/M12 A2982 RMK A01 T00401120  RH  030%=      5-min Rain = 0
KDC1 220656Z 28011KT 04/M12 A2982 RMK A01 T00391121  RH  030%=      5-min Rain = 0
KDC1 220657Z 28010KT 04/M12 A2982 RMK A01 T00401122  RH  030%=      5-min Rain = 0
KDC1 220658Z 28010KT 04/M12 A2982 RMK A01 T00391123  RH  030%=      5-min Rain = 0
KDC1 220659Z 28010KT 04/M12 A2982 RMK A01 T00391122  RH  030%=      5-min Rain = 0
KDC1 220700Z 28010KT 04/M12 A2982 RMK A01 T00381122  RH  030%=      5-min Rain = 0
KDC1 220701Z 28010KT 04/M12 A2982 RMK A01 T00381122  RH  030%=      5-min Rain = 0
KDC1 220702Z 29010KT 04/M12 A2982 RMK A01 T00381122  RH  030%=      5-min Rain = 0
KDC1 220703Z 29010KT 04/M12 A2982 RMK A01 T00381122  RH  030%=      5-min Rain = 0
KDC1 220704Z 28011KT 04/M12 A2982 RMK A01 T00381122  RH  030%=      5-min Rain = 0
KDC1 220705Z 28011KT 04/M12 A2983 RMK A01 T00371122  RH  030%=      5-min Rain = 0
KDC1 220706Z 28011KT 04/M12 A2983 RMK A01 T00381122  RH  030%=      5-min Rain = 0
KDC1 220707Z 28011KT 04/M12 A2983 RMK A01 T00371122  RH  030%=      5-min Rain = 0
KDC1 220708Z 28011KT 04/M12 A2983 RMK A01 T00371122  RH  030%=      5-min Rain = 0
KDC1 220709Z 28011KT 04/M12 A2983 RMK A01 T00371122  RH  030%=      5-min Rain = 0
KDC1 220710Z 28011KT 04/M12 A2983 RMK A01 T00361122  RH  030%=      5-min Rain = 0
KDC1 220711Z 28010KT 04/M12 A2983 RMK A01 T00361122  RH  030%=      5-min Rain = 0
KDC1 220712Z 28010KT 04/M12 A2983 RMK A01 T00361122  RH  030%=      5-min Rain = 0
KDC1 220713Z 28010KT 04/M12 A2983 RMK A01 T00351122  RH  030%=      5-min Rain = 0
KDC1 220714Z 28011KT 04/M12 A2983 RMK A01 T00351122  RH  031%=      5-min Rain = 0
KDC1 220715Z 29011KT 04/M12 A2983 RMK A01 T00351122  RH  031%=      5-min Rain = 0
KDC1 220716Z 29011KT 04/M12 A2983 RMK A01 T00361122  RH  030%=      5-min Rain = 0
KDC1 220717Z 29011KT 04/M12 A2983 RMK A01 T00361122  RH  030%=      5-min Rain = 0
KDC1 220718Z 28012KT 04/M12 A2983 RMK A01 T00371122  RH  030%=      5-min Rain = 0
KDC1 220719Z 29012KT 04/M12 A2983 RMK A01 T00371123  RH  030%=      5-min Rain = 0
KDC1 220720Z 29012KT 04/M12 A2983 RMK A01 T00371123  RH  030%=      5-min Rain = 0
KDC1 220721Z 29011KT 04/M12 A2983 RMK A01 T00371123  RH  030%=      5-min Rain = 0
KDC1 220722Z 28011KT 04/M12 A2983 RMK A01 T00371122  RH  030%=      5-min Rain = 0
KDC1 220723Z 28011KT 04/M12 A2983 RMK A01 T00351122  RH  031%=      5-min Rain = 0
KDC1 220724Z 29011KT 04/M12 A2983 RMK A01 T00351123  RH  031%=      5-min Rain = 0
KDC1 220725Z 29011KT 04/M12 A2983 RMK A01 T00351123  RH  031%=      5-min Rain = 0
KDC1 220726Z 29012KT 04/M12 A2983 RMK A01 T00351123  RH  030%=      5-min Rain = 0
KDC1 220727Z 29012KT 04/M12 A2983 RMK A01 T00351123  RH  030%=      5-min Rain = 0
KDC1 220728Z 29011KT 04/M12 A2983 RMK A01 T00361123  RH  030%=      5-min Rain = 0
KDC1 220729Z 29012KT 04/M12 A2983 RMK A01 T00351123  RH  030%=      5-min Rain = 0
KDC1 220730Z 29012KT 04/M12 A2983 RMK A01 T00361122  RH  030%=      5-min Rain = 0
KDC1 220731Z 29011KT 04/M12 A2983 RMK A01 T00361122  RH  030%=      5-min Rain = 0
KDC1 220732Z 29011KT 04/M12 A2983 RMK A01 T00361122  RH  030%=      5-min Rain = 0
KDC1 220733Z 29011KT 04/M12 A2983 RMK A01 T00361121  RH  031%=      5-min Rain = 0
KDC1 220734Z 30012KT 04/M12 A2983 RMK A01 T00361120  RH  031%=      5-min Rain = 0
KDC1 220735Z 29012KT 04/M12 A2983 RMK A01 T00361120  RH  031%=      5-min Rain = 0
KDC1 220736Z 29012KT 04/M12 A2983 RMK A01 T00371119  RH  031%=      5-min Rain = 0
KDC1 220737Z 30012KT 04/M12 A2983 RMK A01 T00371119  RH  031%=      5-min Rain = 0
KDC1 220738Z 29011KT 04/M12 A2983 RMK A01 T00361119  RH  031%=      5-min Rain = 0
KDC1 220739Z 29011KT 04/M12 A2983 RMK A01 T00361120  RH  031%=      5-min Rain = 0
KDC1 220740Z 29011KT 04/M12 A2983 RMK A01 T00361120  RH  031%=      5-min Rain = 0
KDC1 220741Z 29011KT 04/M12 A2983 RMK A01 T00361121  RH  031%=      5-min Rain = 0
KDC1 220742Z 29011KT 04/M12 A2983 RMK A01 T00361121  RH  031%=      5-min Rain = 0
KDC1 220743Z 29011KT 04/M12 A2983 RMK A01 T00361121  RH  031%=      5-min Rain = 0
KDC1 220744Z 29012KT 04/M12 A2983 RMK A01 T00361121  RH  031%=      5-min Rain = 0
KDC1 220745Z 29011KT 04/M12 A2983 RMK A01 T00361122  RH  030%=      5-min Rain = 0
KDC1 220746Z 30011KT 04/M12 A2983 RMK A01 T00371123  RH  030%=      5-min Rain = 0
KDC1 220747Z 29011KT 04/M12 A2983 RMK A01 T00371123  RH  030%=      5-min Rain = 0
KDC1 220748Z 29011KT 04/M12 A2983 RMK A01 T00361123  RH  030%=      5-min Rain = 0
KDC1 220749Z 29010KT 04/M12 A2983 RMK A01 T00361123  RH  030%=      5-min Rain = 0
KDC1 220750Z 29010KT 04/M12 A2983 RMK A01 T00351123  RH  030%=      5-min Rain = 0
KDC1 220751Z 29009KT 04/M12 A2983 RMK A01 T00351123  RH  030%=      5-min Rain = 0
KDC1 220752Z 29010KT 03/M12 A2983 RMK A01 T00341123  RH  031%=      5-min Rain = 0
KDC1 220753Z 29010KT 03/M12 A2983 RMK A01 T00321123  RH  031%=      5-min Rain = 0
KDC1 220754Z 29010KT 03/M12 A2983 RMK A01 T00311123  RH  031%=      5-min Rain = 0
KDC1 220755Z 29011KT 03/M12 A2983 RMK A01 T00301124  RH  031%=      5-min Rain = 0
KDC1 220756Z 29011KT 03/M12 A2984 RMK A01 T00301123  RH  031%=      5-min Rain = 0
KDC1 220757Z 29011KT 03/M12 A2984 RMK A01 T00291124  RH  031%=      5-min Rain = 0
KDC1 220758Z 29011KT 03/M12 A2984 RMK A01 T00301124  RH  031%=      5-min Rain = 0
KDC1 220759Z 29011KT 03/M12 A2983 RMK A01 T00301124  RH  031%=      5-min Rain = 0
KDC1 220800Z 29010KT 03/M12 A2983 RMK A01 T00301124  RH  031%=      5-min Rain = 0
KDC1 220801Z 29011KT 03/M13 A2984 RMK A01 T00301125  RH  031%=      5-min Rain = 0
KDC1 220802Z 29011KT 03/M12 A2984 RMK A01 T00301124  RH  031%=      5-min Rain = 0
KDC1 220803Z 29012KT 03/M12 A2984 RMK A01 T00301124  RH  031%=      5-min Rain = 0
KDC1 220804Z 29011KT 03/M12 A2984 RMK A01 T00301124  RH  031%=      5-min Rain = 0
KDC1 220805Z 29011KT 03/M12 A2984 RMK A01 T00321124  RH  031%=      5-min Rain = 0
KDC1 220806Z 29011KT 03/M13 A2984 RMK A01 T00331125  RH  031%=      5-min Rain = 0
KDC1 220807Z 29011KT 03/M13 A2984 RMK A01 T00331125  RH  030%=      5-min Rain = 0
KDC1 220808Z 29010KT 03/M13 A2984 RMK A01 T00331125  RH  030%=      5-min Rain = 0
KDC1 220809Z 28010KT 03/M13 A2984 RMK A01 T00331125  RH  030%=      5-min Rain = 0
KDC1 220810Z 28010KT 03/M13 A2984 RMK A01 T00331125  RH  030%=      5-min Rain = 0
KDC1 220811Z 28009KT 03/M13 A2984 RMK A01 T00321125  RH  031%=      5-min Rain = 0
KDC1 220812Z 28010KT 03/M12 A2984 RMK A01 T00301124  RH  031%=      5-min Rain = 0
KDC1 220813Z 28011KT 03/M13 A2984 RMK A01 T00301125  RH  031%=      5-min Rain = 0
KDC1 220814Z 28011KT 03/M13 A2984 RMK A01 T00321125  RH  031%=      5-min Rain = 0
KDC1 220815Z 28011KT 03/M13 A2984 RMK A01 T00331125  RH  030%=      5-min Rain = 0
KDC1 220816Z 28011KT 03/M13 A2984 RMK A01 T00341126  RH  030%=      5-min Rain = 0
KDC1 220817Z 28011KT 03/M13 A2984 RMK A01 T00341127  RH  030%=      5-min Rain = 0
KDC1 220818Z 28011KT 04/M13 A2984 RMK A01 T00351127  RH  030%=      5-min Rain = 0
KDC1 220819Z 28011KT 03/M13 A2984 RMK A01 T00331127  RH  030%=      5-min Rain = 0
KDC1 220820Z 28011KT 03/M13 A2984 RMK A01 T00331128  RH  030%=      5-min Rain = 0
KDC1 220821Z 28010KT 03/M13 A2984 RMK A01 T00331127  RH  030%=      5-min Rain = 0
KDC1 220822Z 28011KT 03/M13 A2984 RMK A01 T00321127  RH  030%=      5-min Rain = 0
KDC1 220823Z 28010KT 03/M13 A2984 RMK A01 T00311127  RH  030%=      5-min Rain = 0
KDC1 220824Z 28010KT 03/M13 A2985 RMK A01 T00301128  RH  030%=      5-min Rain = 0
KDC1 220825Z 29009KT 03/M13 A2985 RMK A01 T00301127  RH  030%=      5-min Rain = 0
KDC1 220826Z 28009KT 03/M13 A2985 RMK A01 T00301127  RH  031%=      5-min Rain = 0
KDC1 220827Z 28010KT 03/M13 A2985 RMK A01 T00291127  RH  031%=      5-min Rain = 0
KDC1 220828Z 28009KT 03/M13 A2985 RMK A01 T00281127  RH  031%=      5-min Rain = 0
KDC1 220829Z 28010KT 03/M13 A2985 RMK A01 T00271128  RH  031%=      5-min Rain = 0
KDC1 220830Z 28010KT 03/M13 A2985 RMK A01 T00271128  RH  031%=      5-min Rain = 0
KDC1 220831Z 28010KT 03/M13 A2985 RMK A01 T00281129  RH  031%=      5-min Rain = 0
KDC1 220832Z 28011KT 03/M13 A2985 RMK A01 T00281127  RH  031%=      5-min Rain = 0
KDC1 220833Z 29011KT 03/M13 A2985 RMK A01 T00291127  RH  031%=      5-min Rain = 0
KDC1 220834Z 29010KT 03/M13 A2985 RMK A01 T00291126  RH  031%=      5-min Rain = 0
KDC1 220835Z 29010KT 03/M13 A2985 RMK A01 T00291127  RH  031%=      5-min Rain = 0
KDC1 220836Z 29010KT 03/M13 A2985 RMK A01 T00291127  RH  031%=      5-min Rain = 0
KDC1 220837Z 29010KT 03/M13 A2985 RMK A01 T00291127  RH  031%=      5-min Rain = 0
KDC1 220838Z 29009KT 03/M13 A2985 RMK A01 T00281127  RH  031%=      5-min Rain = 0
KDC1 220839Z 29009KT 03/M13 A2985 RMK A01 T00281127  RH  031%=      5-min Rain = 0
KDC1 220840Z 28010KT 03/M13 A2985 RMK A01 T00291127  RH  031%=      5-min Rain = 0
KDC1 220841Z 28011KT 03/M13 A2985 RMK A01 T00281127  RH  031%=      5-min Rain = 0
KDC1 220842Z 29011KT 03/M13 A2985 RMK A01 T00251127  RH  032%=      5-min Rain = 0
KDC1 220843Z 29009KT 02/M13 A2985 RMK A01 T00241127  RH  032%=      5-min Rain = 0
KDC1 220844Z 30008KT 03/M13 A2984 RMK A01 T00251128  RH  031%=      5-min Rain = 0
KDC1 220845Z 31005KT 03/M13 A2984 RMK A01 T00261127  RH  031%=      5-min Rain = 0
KDC1 220846Z 34002KT 03/M13 A2984 RMK A01 T00251126  RH  032%=      5-min Rain = 0
KDC1 220847Z 35003KT 02/M13 A2985 RMK A01 T00221127  RH  032%=      5-min Rain = 0
KDC1 220848Z 36004KT 02/M13 A2985 RMK A01 T00191127  RH  033%=      5-min Rain = 0
KDC1 220849Z 34004KT 02/M13 A2985 RMK A01 T00171127  RH  033%=      5-min Rain = 0
KDC1 220850Z 33004KT 02/M13 A2985 RMK A01 T00161127  RH  034%=      5-min Rain = 0
KDC1 220851Z 31004KT 02/M13 A2985 RMK A01 T00161127  RH  034%=      5-min Rain = 0
KDC1 220852Z 30005KT 02/M13 A2985 RMK A01 T00181126  RH  034%=      5-min Rain = 0
KDC1 220853Z 30006KT 02/M13 A2985 RMK A01 T00201126  RH  033%=      5-min Rain = 0
KDC1 220854Z 31006KT 02/M13 A2985 RMK A01 T00221127  RH  032%=      5-min Rain = 0
KDC1 220855Z 33004KT 02/M13 A2985 RMK A01 T00231127  RH  032%=      5-min Rain = 0
KDC1 220856Z 00003KT 02/M13 A2985 RMK A01 T00231128  RH  032%=      5-min Rain = 0
KDC1 220857Z 03003KT 02/M13 A2985 RMK A01 T00201128  RH  032%=      5-min Rain = 0
KDC1 220858Z 02004KT 02/M13 A2985 RMK A01 T00191129  RH  033%=      5-min Rain = 0
KDC1 220859Z 34003KT 02/M13 A2985 RMK A01 T00181129  RH  033%=      5-min Rain = 0
KDC1 220900Z 30004KT 02/M13 A2985 RMK A01 T00181128  RH  033%=      5-min Rain = 0
KDC1 220901Z 31004KT 02/M13 A2985 RMK A01 T00201128  RH  032%=      5-min Rain = 0
KDC1 220902Z 32003KT 02/M13 A2985 RMK A01 T00211128  RH  032%=      5-min Rain = 0
KDC1 220903Z 33002KT 02/M13 A2985 RMK A01 T00211128  RH  032%=      5-min Rain = 0
KDC1 220904Z 05001KT 02/M13 A2985 RMK A01 T00211127  RH  032%=      5-min Rain = 0
KDC1 220905Z 09003KT 02/M12 A2985 RMK A01 T00181123  RH  035%=      5-min Rain = 0
KDC1 220906Z 07003KT 02/M12 A2985 RMK A01 T00151119  RH  036%=      5-min Rain = 0
KDC1 220907Z 04001KT 01/M12 A2985 RMK A01 T00131117  RH  037%=      5-min Rain = 0
KDC1 220908Z 01001KT 01/M12 A2985 RMK A01 T00131119  RH  037%=      5-min Rain = 0
KDC1 220909Z 36002KT 01/M12 A2985 RMK A01 T00131124  RH  035%=      5-min Rain = 0
KDC1 220910Z 35001KT 01/M13 A2985 RMK A01 T00141128  RH  034%=      5-min Rain = 0
KDC1 220911Z 35002KT 02/M13 A2985 RMK A01 T00161129  RH  033%=      5-min Rain = 0
KDC1 220912Z 35001KT 02/M13 A2985 RMK A01 T00171130  RH  033%=      5-min Rain = 0
KDC1 220913Z 00000KT 02/M13 A2985 RMK A01 T00171129  RH  033%=      5-min Rain = 0
KDC1 220914Z 19001KT 02/M13 A2985 RMK A01 T00161126  RH  034%=      5-min Rain = 0
KDC1 220915Z 18002KT 01/M12 A2985 RMK A01 T00131118  RH  037%=      5-min Rain = 0
KDC1 220916Z 16002KT 01/M11 A2986 RMK A01 T00111114  RH  039%=      5-min Rain = 0
KDC1 220917Z 16003KT 01/M11 A2986 RMK A01 T00091111  RH  040%=      5-min Rain = 0
KDC1 220918Z 18003KT 01/M11 A2986 RMK A01 T00061112  RH  041%=      5-min Rain = 0
KDC1 220919Z 17003KT 00/M11 A2986 RMK A01 T00031112  RH  042%=      5-min Rain = 0
KDC1 220920Z 18002KT 00/M11 A2986 RMK A01 T00021112  RH  042%=      5-min Rain = 0
KDC1 220921Z 21003KT 00/M11 A2986 RMK A01 T00021113  RH  042%=      5-min Rain = 0
KDC1 220922Z 23003KT 00/M11 A2986 RMK A01 T00021113  RH  042%=      5-min Rain = 0
KDC1 220923Z 22003KT 00/M12 A2986 RMK A01 T00031115  RH  041%=      5-min Rain = 0
KDC1 220924Z 20003KT 01/M12 A2986 RMK A01 T00051116  RH  040%=      5-min Rain = 0
KDC1 220925Z 19003KT 01/M12 A2986 RMK A01 T00061116  RH  040%=      5-min Rain = 0
KDC1 220926Z 18003KT 01/M12 A2986 RMK A01 T00071115  RH  040%=      5-min Rain = 0
KDC1 220927Z 17004KT 01/M11 A2986 RMK A01 T00071111  RH  041%=      5-min Rain = 0
KDC1 220928Z 18004KT 01/M11 A2986 RMK A01 T00051111  RH  041%=      5-min Rain = 0
KDC1 220929Z 19003KT 00/M11 A2986 RMK A01 T00041111  RH  042%=      5-min Rain = 0
KDC1 220930Z 18003KT 00/M11 A2986 RMK A01 T00041113  RH  041%=      5-min Rain = 0
KDC1 220931Z 17003KT 00/M11 A2986 RMK A01 T00041114  RH  041%=      5-min Rain = 0
KDC1 220932Z 17002KT 01/M11 A2985 RMK A01 T00051114  RH  041%=      5-min Rain = 0
KDC1 220933Z 17002KT 01/M11 A2985 RMK A01 T00051113  RH  041%=      5-min Rain = 0
KDC1 220934Z 20002KT 00/M11 A2986 RMK A01 T00041112  RH  041%=      5-min Rain = 0
KDC1 220935Z 23002KT 00/M11 A2986 RMK A01 T00041113  RH  041%=      5-min Rain = 0
KDC1 220936Z 23002KT 00/M11 A2986 RMK A01 T00041114  RH  041%=      5-min Rain = 0
KDC1 220937Z 20002KT 00/M12 A2986 RMK A01 T00041115  RH  040%=      5-min Rain = 0
KDC1 220938Z 18002KT 00/M12 A2985 RMK A01 T00031116  RH  040%=      5-min Rain = 0
KDC1 220939Z 18001KT 00/M12 A2985 RMK A01 T00031116  RH  040%=      5-min Rain = 0
KDC1 220940Z 17002KT 00/M12 A2985 RMK A01 T00021117  RH  041%=      5-min Rain = 0
KDC1 220941Z 18002KT 00/M12 A2985 RMK A01 T00011117  RH  041%=      5-min Rain = 0
KDC1 220942Z 21002KT 00/M12 A2986 RMK A01 T00011115  RH  042%=      5-min Rain = 0
KDC1 220943Z 24003KT 00/12 A2986 RMK A01 T00-00-116  RH  041%=      5-min Rain = 0
KDC1 220944Z 23004KT M00/M12 A2986 RMK A01 T10011116  RH  042%=      5-min Rain = 0
KDC1 220945Z 19003KT M00/M12 A2985 RMK A01 T10011116  RH  042%=      5-min Rain = 0
KDC1 220946Z 20003KT 00/12 A2985 RMK A01 T00000-117  RH  041%=      5-min Rain = 0
KDC1 220947Z 19003KT 00/M12 A2985 RMK A01 T00011117  RH  041%=      5-min Rain = 0
KDC1 220948Z 20002KT 00/M12 A2985 RMK A01 T00021118  RH  040%=      5-min Rain = 0
KDC1 220949Z 20003KT 00/M12 A2985 RMK A01 T00021118  RH  040%=      5-min Rain = 0
KDC1 220950Z 22003KT 00/M12 A2985 RMK A01 T00021118  RH  040%=      5-min Rain = 0
KDC1 220951Z 26007KT 00/12 A2986 RMK A01 T00000-117  RH  041%=      5-min Rain = 0
KDC1 220952Z 24005KT M00/M12 A2986 RMK A01 T10041118  RH  042%=      5-min Rain = 0
KDC1 220953Z 23003KT M01/M12 A2986 RMK A01 T10061118  RH  043%=      5-min Rain = 0
KDC1 220954Z 22003KT M01/M12 A2986 RMK A01 T10061118  RH  043%=      5-min Rain = 0
KDC1 220955Z 21004KT M01/M12 A2985 RMK A01 T10051118  RH  042%=      5-min Rain = 0
KDC1 220956Z 21004KT M00/M12 A2986 RMK A01 T10031119  RH  041%=      5-min Rain = 0
KDC1 220957Z 22004KT M00/M12 A2986 RMK A01 T10011120  RH  040%=      5-min Rain = 0
KDC1 220958Z 24006KT 00/12 A2986 RMK A01 T00-00-120  RH  040%=      5-min Rain = 0
KDC1 220959Z 24006KT M00/M12 A2986 RMK A01 T10011120  RH  040%=      5-min Rain = 0
KDC1 221000Z 21004KT M00/M12 A2986 RMK A01 T10021120  RH  041%=      5-min Rain = 0
KDC1 221001Z 20005KT 00/12 A2986 RMK A01 T00-00-120  RH  040%=      5-min Rain = 0
KDC1 221002Z 19005KT 00/M12 A2986 RMK A01 T00021119  RH  040%=      5-min Rain = 0
KDC1 221003Z 19005KT 00/M12 A2986 RMK A01 T00011116  RH  041%=      5-min Rain = 0
KDC1 221004Z 19005KT M00/M12 A2986 RMK A01 T10011117  RH  041%=      5-min Rain = 0
KDC1 221005Z 20005KT M00/M12 A2986 RMK A01 T10011117  RH  041%=      5-min Rain = 0
KDC1 221006Z 22004KT M00/M12 A2986 RMK A01 T10021118  RH  041%=      5-min Rain = 0
KDC1 221007Z 22005KT M00/M12 A2986 RMK A01 T10021120  RH  040%=      5-min Rain = 0
KDC1 221008Z 21005KT 00/M12 A2986 RMK A01 T00011124  RH  038%=      5-min Rain = 0
KDC1 221009Z 20004KT 00/M13 A2986 RMK A01 T00041125  RH  037%=      5-min Rain = 0
KDC1 221010Z 20004KT 01/M13 A2986 RMK A01 T00061125  RH  037%=      5-min Rain = 0
KDC1 221011Z 20004KT 01/M13 A2986 RMK A01 T00071126  RH  036%=      5-min Rain = 0
KDC1 221012Z 21004KT 01/M13 A2986 RMK A01 T00061127  RH  036%=      5-min Rain = 0
KDC1 221013Z 21004KT 01/M13 A2986 RMK A01 T00061128  RH  036%=      5-min Rain = 0
KDC1 221014Z 19003KT 01/M13 A2986 RMK A01 T00071128  RH  036%=      5-min Rain = 0
KDC1 221015Z 19003KT 01/M13 A2986 RMK A01 T00101127  RH  035%=      5-min Rain = 0
KDC1 221016Z 20003KT 01/M13 A2986 RMK A01 T00111128  RH  035%=      5-min Rain = 0
KDC1 221017Z 19003KT 01/M13 A2986 RMK A01 T00101128  RH  035%=      5-min Rain = 0
KDC1 221018Z 20003KT 01/M13 A2986 RMK A01 T00091129  RH  035%=      5-min Rain = 0
KDC1 221019Z 23005KT 01/M13 A2986 RMK A01 T00091129  RH  035%=      5-min Rain = 0
KDC1 221020Z 23005KT 01/M13 A2986 RMK A01 T00071129  RH  035%=      5-min Rain = 0
KDC1 221021Z 23005KT 00/M13 A2986 RMK A01 T00041129  RH  036%=      5-min Rain = 0
KDC1 221022Z 23004KT 00/M13 A2986 RMK A01 T00021128  RH  037%=      5-min Rain = 0
KDC1 221023Z 22003KT 00/M13 A2985 RMK A01 T00011128  RH  037%=      5-min Rain = 0
KDC1 221024Z 22003KT 00/M13 A2985 RMK A01 T00021127  RH  037%=      5-min Rain = 0
KDC1 221025Z 23004KT 00/M13 A2985 RMK A01 T00031127  RH  037%=      5-min Rain = 0
KDC1 221026Z 23006KT 00/M13 A2986 RMK A01 T00031127  RH  037%=      5-min Rain = 0
KDC1 221027Z 24006KT 00/M13 A2986 RMK A01 T00031127  RH  037%=      5-min Rain = 0
KDC1 221028Z 24006KT 00/13 A2986 RMK A01 T00000-127  RH  038%=      5-min Rain = 0
KDC1 221029Z 23005KT M00/M13 A2986 RMK A01 T10021126  RH  039%=      5-min Rain = 0
KDC1 221030Z 23005KT M00/M13 A2986 RMK A01 T10031125  RH  039%=      5-min Rain = 0
KDC1 221031Z 23005KT M00/M13 A2986 RMK A01 T10031125  RH  039%=      5-min Rain = 0
KDC1 221032Z 23004KT M00/M13 A2986 RMK A01 T10011126  RH  039%=      5-min Rain = 0
KDC1 221033Z 25005KT 00/13 A2986 RMK A01 T00-00-125  RH  038%=      5-min Rain = 0
KDC1 221034Z 24005KT M00/M12 A2986 RMK A01 T10011124  RH  039%=      5-min Rain = 0
KDC1 221035Z 24005KT M00/M12 A2986 RMK A01 T10031122  RH  040%=      5-min Rain = 0
KDC1 221036Z 24005KT M00/M12 A2986 RMK A01 T10031122  RH  040%=      5-min Rain = 0
KDC1 221037Z 23004KT M00/M12 A2986 RMK A01 T10031123  RH  040%=      5-min Rain = 0
KDC1 221038Z 23002KT M00/M12 A2986 RMK A01 T10021124  RH  039%=      5-min Rain = 0
KDC1 221039Z 23002KT 00/12 A2986 RMK A01 T00000-124  RH  039%=      5-min Rain = 0
KDC1 221040Z 23003KT 00/M12 A2986 RMK A01 T00011124  RH  038%=      5-min Rain = 0
KDC1 221041Z 23004KT 00/M12 A2987 RMK A01 T00011124  RH  038%=      5-min Rain = 0
KDC1 221042Z 24005KT 00/M12 A2987 RMK A01 T00011123  RH  039%=      5-min Rain = 0
KDC1 221043Z 26006KT M00/M12 A2987 RMK A01 T10011122  RH  040%=      5-min Rain = 0
KDC1 221044Z 25006KT M00/M12 A2987 RMK A01 T10031120  RH  041%=      5-min Rain = 0
KDC1 221045Z 25005KT M01/M12 A2987 RMK A01 T10051119  RH  042%=      5-min Rain = 0
KDC1 221046Z 25005KT M01/M12 A2987 RMK A01 T10051119  RH  042%=      5-min Rain = 0
KDC1 221047Z 24005KT M01/M12 A2987 RMK A01 T10051119  RH  042%=      5-min Rain = 0
KDC1 221048Z 25006KT M01/M12 A2987 RMK A01 T10051119  RH  042%=      5-min Rain = 0
KDC1 221049Z 26008KT M01/M12 A2987 RMK A01 T10061117  RH  043%=      5-min Rain = 0
KDC1 221050Z 26009KT M01/M12 A2987 RMK A01 T10071116  RH  044%=      5-min Rain = 0
KDC1 221051Z 26007KT M01/M12 A2987 RMK A01 T10071116  RH  044%=      5-min Rain = 0
KDC1 221052Z 25005KT M01/M12 A2987 RMK A01 T10051117  RH  042%=      5-min Rain = 0
KDC1 221053Z 25006KT M00/M12 A2987 RMK A01 T10031118  RH  041%=      5-min Rain = 0
KDC1 221054Z 25006KT M00/M12 A2987 RMK A01 T10011119  RH  041%=      5-min Rain = 0
KDC1 221055Z 26007KT 00/12 A2987 RMK A01 T00000-119  RH  040%=      5-min Rain = 0
KDC1 221056Z 26008KT 00/M12 A2987 RMK A01 T00011120  RH  040%=      5-min Rain = 0
KDC1 221057Z 26006KT 00/M12 A2987 RMK A01 T00011120  RH  040%=      5-min Rain = 0
KDC1 221058Z 25004KT 00/M12 A2987 RMK A01 T00011119  RH  040%=      5-min Rain = 0
KDC1 221059Z 25003KT 00/M12 A2987 RMK A01 T00011119  RH  040%=      5-min Rain = 0
KDC1 221100Z 25004KT 00/M12 A2987 RMK A01 T00011118  RH  041%=      5-min Rain = 0
KDC1 221101Z 26005KT 00/12 A2987 RMK A01 T00000-117  RH  041%=      5-min Rain = 0
KDC1 221102Z 26005KT M00/M12 A2987 RMK A01 T10011116  RH  041%=      5-min Rain = 0
KDC1 221103Z 26004KT M00/M12 A2987 RMK A01 T10021116  RH  042%=      5-min Rain = 0
KDC1 221104Z 26004KT M00/M12 A2987 RMK A01 T10031116  RH  042%=      5-min Rain = 0
KDC1 221105Z 26004KT M00/M12 A2987 RMK A01 T10041116  RH  043%=      5-min Rain = 0
KDC1 221106Z 25004KT M00/M12 A2987 RMK A01 T10041116  RH  043%=      5-min Rain = 0
KDC1 221107Z 26004KT M00/M12 A2987 RMK A01 T10041115  RH  043%=      5-min Rain = 0
KDC1 221108Z 26004KT M00/M11 A2987 RMK A01 T10021114  RH  043%=      5-min Rain = 0
KDC1 221109Z 26005KT M00/M11 A2987 RMK A01 T10011113  RH  043%=      5-min Rain = 0
KDC1 221110Z 27004KT 00/11 A2987 RMK A01 T00-00-112  RH  043%=      5-min Rain = 0
KDC1 221111Z 27004KT 00/11 A2987 RMK A01 T00-00-111  RH  043%=      5-min Rain = 0
KDC1 221112Z 27005KT M00/M11 A2987 RMK A01 T10011110  RH  044%=      5-min Rain = 0
KDC1 221113Z 27005KT M00/M11 A2987 RMK A01 T10021109  RH  044%=      5-min Rain = 0
KDC1 221114Z 27004KT M00/M11 A2987 RMK A01 T10031108  RH  045%=      5-min Rain = 0
KDC1 221115Z 27004KT M00/M11 A2987 RMK A01 T10031111  RH  044%=      5-min Rain = 0
KDC1 221116Z 27005KT M00/M12 A2987 RMK A01 T10021115  RH  042%=      5-min Rain = 0
KDC1 221117Z 27005KT M00/M12 A2987 RMK A01 T10031118  RH  042%=      5-min Rain = 0
KDC1 221118Z 27004KT M00/M12 A2987 RMK A01 T10031121  RH  041%=      5-min Rain = 0
KDC1 221119Z 27006KT M00/M12 A2987 RMK A01 T10031122  RH  040%=      5-min Rain = 0
KDC1 221120Z 27006KT M00/M12 A2987 RMK A01 T10041123  RH  040%=      5-min Rain = 0
KDC1 221121Z 28006KT M01/M12 A2987 RMK A01 T10051123  RH  040%=      5-min Rain = 0
KDC1 221122Z 27007KT M01/M12 A2987 RMK A01 T10071124  RH  041%=      5-min Rain = 0
KDC1 221123Z 27007KT M01/M12 A2987 RMK A01 T10071124  RH  041%=      5-min Rain = 0
KDC1 221124Z 27008KT M01/M12 A2987 RMK A01 T10081124  RH  041%=      5-min Rain = 0
KDC1 221125Z 27008KT M01/M12 A2987 RMK A01 T10081124  RH  041%=      5-min Rain = 0
KDC1 221126Z 27008KT M01/M12 A2987 RMK A01 T10081124  RH  041%=      5-min Rain = 0
KDC1 221127Z 27007KT M01/M12 A2987 RMK A01 T10071124  RH  041%=      5-min Rain = 0
KDC1 221128Z 27007KT M01/M12 A2987 RMK A01 T10071124  RH  041%=      5-min Rain = 0
KDC1 221129Z 27006KT M01/M12 A2987 RMK A01 T10061124  RH  040%=      5-min Rain = 0
KDC1 221130Z 27006KT M00/M13 A2987 RMK A01 T10041126  RH  039%=      5-min Rain = 0
KDC1 221131Z 27006KT M00/M13 A2987 RMK A01 T10031128  RH  038%=      5-min Rain = 0
KDC1 221132Z 28006KT M00/M13 A2987 RMK A01 T10031129  RH  038%=      5-min Rain = 0
KDC1 221133Z 27005KT M00/M13 A2987 RMK A01 T10041129  RH  038%=      5-min Rain = 0
KDC1 221134Z 26005KT M00/M13 A2987 RMK A01 T10041129  RH  038%=      5-min Rain = 0
KDC1 221135Z 26004KT M00/M13 A2987 RMK A01 T10031130  RH  038%=      5-min Rain = 0
KDC1 221136Z 26003KT M00/M13 A2987 RMK A01 T10021131  RH  037%=      5-min Rain = 0
KDC1 221137Z 27003KT M00/M13 A2987 RMK A01 T10021131  RH  037%=      5-min Rain = 0
KDC1 221138Z 28003KT M00/M13 A2987 RMK A01 T10021131  RH  037%=      5-min Rain = 0
KDC1 221139Z 29003KT M00/M13 A2987 RMK A01 T10021131  RH  037%=      5-min Rain = 0
KDC1 221140Z 29003KT M00/M13 A2987 RMK A01 T10021132  RH  037%=      5-min Rain = 0
KDC1 221141Z 28003KT M00/M13 A2987 RMK A01 T10041132  RH  037%=      5-min Rain = 0
KDC1 221142Z 29003KT M00/M13 A2987 RMK A01 T10041132  RH  037%=      5-min Rain = 0
KDC1 221143Z 31003KT M01/M13 A2987 RMK A01 T10051132  RH  038%=      5-min Rain = 0
KDC1 221144Z 33003KT M01/M13 A2987 RMK A01 T10061130  RH  038%=      5-min Rain = 0
KDC1 221145Z 32003KT M01/M13 A2987 RMK A01 T10071129  RH  039%=      5-min Rain = 0
KDC1 221146Z 30003KT M01/M13 A2987 RMK A01 T10081127  RH  040%=      5-min Rain = 0
KDC1 221147Z 27002KT M01/M13 A2987 RMK A01 T10081127  RH  040%=      5-min Rain = 0
KDC1 221148Z 25003KT M01/M13 A2987 RMK A01 T10081126  RH  041%=      5-min Rain = 0
KDC1 221149Z 25003KT M01/M13 A2987 RMK A01 T10081125  RH  041%=      5-min Rain = 0
KDC1 221150Z 27003KT M01/M13 A2987 RMK A01 T10081126  RH  040%=      5-min Rain = 0
KDC1 221151Z 28003KT M01/M13 A2987 RMK A01 T10081126  RH  040%=      5-min Rain = 0
KDC1 221152Z 28003KT M01/M13 A2987 RMK A01 T10071126  RH  040%=      5-min Rain = 0
KDC1 221153Z 27004KT M01/M13 A2987 RMK A01 T10061127  RH  040%=      5-min Rain = 0
KDC1 221154Z 27004KT M01/M13 A2987 RMK A01 T10071127  RH  040%=      5-min Rain = 0
KDC1 221155Z 27003KT M01/M13 A2987 RMK A01 T10071127  RH  040%=      5-min Rain = 0
KDC1 221156Z 27003KT M01/M13 A2987 RMK A01 T10071127  RH  040%=      5-min Rain = 0
KDC1 221157Z 27003KT M01/M13 A2987 RMK A01 T10071126  RH  040%=      5-min Rain = 0
KDC1 221158Z 27003KT M01/M13 A2987 RMK A01 T10061125  RH  040%=      5-min Rain = 0
KDC1 221159Z 27004KT M01/M13 A2987 RMK A01 T10061125  RH  040%=      5-min Rain = 0
KDC1 221200Z 27004KT M01/M12 A2987 RMK A01 T10051124  RH  040%=      5-min Rain = 0
KDC1 221201Z 28004KT M01/M12 A2987 RMK A01 T10051123  RH  041%=      5-min Rain = 0
KDC1 221202Z 29004KT M01/M12 A2987 RMK A01 T10051122  RH  041%=      5-min Rain = 0
KDC1 221203Z 29004KT M01/M12 A2987 RMK A01 T10051121  RH  041%=      5-min Rain = 0
KDC1 221204Z 29004KT M00/M12 A2987 RMK A01 T10041120  RH  041%=      5-min Rain = 0
KDC1 221205Z 28004KT M00/M12 A2987 RMK A01 T10031120  RH  041%=      5-min Rain = 0
KDC1 221206Z 27003KT M00/M12 A2987 RMK A01 T10021119  RH  041%=      5-min Rain = 0
KDC1 221207Z 26003KT M00/M12 A2987 RMK A01 T10021119  RH  041%=      5-min Rain = 0
KDC1 221208Z 25003KT M00/M12 A2987 RMK A01 T10021118  RH  041%=      5-min Rain = 0
KDC1 221209Z 23002KT M00/M12 A2987 RMK A01 T10031117  RH  042%=      5-min Rain = 0
KDC1 221210Z 21002KT M00/M12 A2987 RMK A01 T10041115  RH  043%=      5-min Rain = 0
KDC1 221211Z 18001KT M01/M11 A2987 RMK A01 T10091110  RH  046%=      5-min Rain = 0
KDC1 221212Z 13004KT M01/M11 A2987 RMK A01 T10141109  RH  048%=      5-min Rain = 0
KDC1 221213Z 14004KT M02/M11 A2988 RMK A01 T10211109  RH  051%=      5-min Rain = 0
KDC1 221214Z 17003KT M03/M11 A2988 RMK A01 T10251107  RH  054%=      5-min Rain = 0
KDC1 221215Z 19003KT M03/M11 A2988 RMK A01 T10271107  RH  054%=      5-min Rain = 0
KDC1 221216Z 21003KT M03/M11 A2988 RMK A01 T10261108  RH  053%=      5-min Rain = 0
KDC1 221217Z 23002KT M02/M11 A2988 RMK A01 T10241108  RH  052%=      5-min Rain = 0
KDC1 221218Z 27002KT M02/M11 A2987 RMK A01 T10201108  RH  051%=      5-min Rain = 0
KDC1 221219Z 27002KT M02/M11 A2987 RMK A01 T10181108  RH  050%=      5-min Rain = 0
KDC1 221220Z 28002KT M02/M11 A2987 RMK A01 T10161109  RH  049%=      5-min Rain = 0
KDC1 221221Z 27001KT M02/M11 A2988 RMK A01 T10161110  RH  049%=      5-min Rain = 0
KDC1 221222Z 23000KT M02/M11 A2988 RMK A01 T10161110  RH  049%=      5-min Rain = 0
KDC1 221223Z 11002KT M02/M11 A2988 RMK A01 T10181109  RH  050%=      5-min Rain = 0
KDC1 221224Z 12003KT M02/M11 A2988 RMK A01 T10221110  RH  051%=      5-min Rain = 0
KDC1 221225Z 15003KT M03/M11 A2988 RMK A01 T10261112  RH  052%=      5-min Rain = 0
KDC1 221226Z 17002KT M03/M11 A2988 RMK A01 T10281112  RH  053%=      5-min Rain = 0
KDC1 221227Z 19002KT M03/M11 A2988 RMK A01 T10301111  RH  054%=      5-min Rain = 0
KDC1 221228Z 22002KT M03/M11 A2988 RMK A01 T10281112  RH  053%=      5-min Rain = 0
KDC1 221229Z 26001KT M02/M11 A2988 RMK A01 T10241112  RH  051%=      5-min Rain = 0
KDC1 221230Z 28001KT M02/M11 A2988 RMK A01 T10211113  RH  049%=      5-min Rain = 0
KDC1 221231Z 27001KT M02/M11 A2988 RMK A01 T10201114  RH  049%=      5-min Rain = 0
KDC1 221232Z 25000KT M02/M12 A2988 RMK A01 T10201115  RH  048%=      5-min Rain = 0
KDC1 221233Z 00000KT M02/M12 A2988 RMK A01 T10201115  RH  048%=      5-min Rain = 0
KDC1 221234Z 00000KT M02/M11 A2988 RMK A01 T10201114  RH  048%=      5-min Rain = 0
KDC1 221235Z 00000KT M02/M12 A2988 RMK A01 T10201115  RH  048%=      5-min Rain = 0
KDC1 221236Z 24000KT M02/M12 A2988 RMK A01 T10211116  RH  048%=      5-min Rain = 0
KDC1 221237Z 25001KT M02/M12 A2988 RMK A01 T10221115  RH  049%=      5-min Rain = 0
KDC1 221238Z 26000KT M02/M11 A2988 RMK A01 T10211114  RH  049%=      5-min Rain = 0
KDC1 221239Z 00000KT M02/M11 A2988 RMK A01 T10211114  RH  049%=      5-min Rain = 0
KDC1 221240Z 00000KT M02/M11 A2988 RMK A01 T10201113  RH  049%=      5-min Rain = 0
KDC1 221241Z 00000KT M02/M11 A2988 RMK A01 T10191112  RH  049%=      5-min Rain = 0
KDC1 221242Z 12001KT M02/M11 A2988 RMK A01 T10181111  RH  049%=      5-min Rain = 0
KDC1 221243Z 10000KT M02/M11 A2988 RMK A01 T10171112  RH  048%=      5-min Rain = 0
KDC1 221244Z 00000KT M02/M11 A2988 RMK A01 T10171114  RH  048%=      5-min Rain = 0
KDC1 221245Z 00000KT M02/M11 A2988 RMK A01 T10171114  RH  048%=      5-min Rain = 0
KDC1 221246Z 00000KT M02/M12 A2988 RMK A01 T10181115  RH  048%=      5-min Rain = 0
KDC1 221247Z 17000KT M02/M12 A2988 RMK A01 T10181115  RH  048%=      5-min Rain = 0
KDC1 221248Z 17001KT M02/M11 A2988 RMK A01 T10191114  RH  048%=      5-min Rain = 0
KDC1 221249Z 00000KT M02/M11 A2988 RMK A01 T10161109  RH  049%=      5-min Rain = 0
KDC1 221250Z 00000KT M01/M10 A2988 RMK A01 T10121104  RH  049%=      5-min Rain = 0
KDC1 221251Z 00000KT M01/M10 A2988 RMK A01 T10101103  RH  049%=      5-min Rain = 0
KDC1 221252Z 00000KT M01/M10 A2989 RMK A01 T10071102  RH  049%=      5-min Rain = 0
KDC1 221253Z 12000KT M01/M10 A2989 RMK A01 T10051104  RH  047%=      5-min Rain = 0
KDC1 221254Z 08001KT M00/M11 A2989 RMK A01 T10041108  RH  045%=      5-min Rain = 0
KDC1 221255Z 07000KT M01/M11 A2989 RMK A01 T10051109  RH  045%=      5-min Rain = 0
KDC1 221256Z 00000KT M00/M11 A2989 RMK A01 T10041106  RH  046%=      5-min Rain = 0
KDC1 221257Z 16001KT M00/M10 A2989 RMK A01 T10021104  RH  046%=      5-min Rain = 0
KDC1 221258Z 17001KT M00/M11 A2989 RMK A01 T10011107  RH  044%=      5-min Rain = 0
KDC1 221259Z 18000KT M00/M11 A2989 RMK A01 T10021112  RH  043%=      5-min Rain = 0
KDC1 221300Z 19000KT M00/M11 A2989 RMK A01 T10031107  RH  045%=      5-min Rain = 0
KDC1 221301Z 14001KT M00/M10 A2989 RMK A01 T10021104  RH  046%=      5-min Rain = 0
KDC1 221302Z 14001KT 00/10 A2989 RMK A01 T00000-100  RH  047%=      5-min Rain = 0
KDC1 221303Z 16001KT 00/M10 A2989 RMK A01 T00031098  RH  047%=      5-min Rain = 0
KDC1 221304Z 16001KT 01/M10 A2989 RMK A01 T00061097  RH  046%=      5-min Rain = 0
KDC1 221305Z 17002KT 01/M09 A2989 RMK A01 T00101094  RH  046%=      5-min Rain = 0
KDC1 221306Z 18002KT 01/M09 A2989 RMK A01 T00141093  RH  045%=      5-min Rain = 0
KDC1 221307Z 19003KT 02/M09 A2989 RMK A01 T00161093  RH  044%=      5-min Rain = 0
KDC1 221308Z 20003KT 02/M09 A2989 RMK A01 T00201090  RH  044%=      5-min Rain = 0
KDC1 221309Z 23003KT 02/M09 A2989 RMK A01 T00241088  RH  043%=      5-min Rain = 0
KDC1 221310Z 23002KT 03/M09 A2989 RMK A01 T00261088  RH  043%=      5-min Rain = 0
KDC1 221311Z 23002KT 03/M09 A2989 RMK A01 T00271089  RH  042%=      5-min Rain = 0
KDC1 221312Z 23002KT 03/M09 A2989 RMK A01 T00271090  RH  042%=      5-min Rain = 0
KDC1 221313Z 23002KT 03/M09 A2989 RMK A01 T00261092  RH  042%=      5-min Rain = 0
KDC1 221314Z 23002KT 02/M09 A2989 RMK A01 T00241092  RH  042%=      5-min Rain = 0
KDC1 221315Z 21002KT 02/M09 A2989 RMK A01 T00241090  RH  043%=      5-min Rain = 0
KDC1 221316Z 21002KT 02/M09 A2989 RMK A01 T00231090  RH  043%=      5-min Rain = 0
KDC1 221317Z 21001KT 02/M09 A2989 RMK A01 T00231090  RH  043%=      5-min Rain = 0
KDC1 221318Z 24001KT 02/M09 A2989 RMK A01 T00201092  RH  043%=      5-min Rain = 0
KDC1 221319Z 24002KT 02/M09 A2989 RMK A01 T00181093  RH  043%=      5-min Rain = 0
KDC1 221320Z 24002KT 01/M10 A2989 RMK A01 T00131098  RH  043%=      5-min Rain = 0
KDC1 221321Z 25002KT 01/M10 A2989 RMK A01 T00091099  RH  044%=      5-min Rain = 0
KDC1 221322Z 25003KT 01/M10 A2989 RMK A01 T00071097  RH  046%=      5-min Rain = 0
KDC1 221323Z 26003KT 01/M10 A2989 RMK A01 T00071095  RH  047%=      5-min Rain = 0
KDC1 221324Z 26003KT 01/M09 A2989 RMK A01 T00081093  RH  047%=      5-min Rain = 0
KDC1 221325Z 25004KT 01/M09 A2989 RMK A01 T00091092  RH  047%=      5-min Rain = 0
KDC1 221326Z 24004KT 01/M09 A2989 RMK A01 T00081093  RH  047%=      5-min Rain = 0
KDC1 221327Z 24004KT 01/M10 A2989 RMK A01 T00061095  RH  047%=      5-min Rain = 0
KDC1 221328Z 25004KT 00/M10 A2989 RMK A01 T00041095  RH  047%=      5-min Rain = 0
KDC1 221329Z 24004KT 00/M10 A2989 RMK A01 T00031095  RH  048%=      5-min Rain = 0
KDC1 221330Z 25004KT 00/M10 A2989 RMK A01 T00031095  RH  048%=      5-min Rain = 0
KDC1 221331Z 25004KT 00/M10 A2989 RMK A01 T00031095  RH  048%=      5-min Rain = 0
KDC1 221332Z 24004KT 00/M10 A2989 RMK A01 T00031096  RH  047%=      5-min Rain = 0
KDC1 221333Z 23004KT 00/M10 A2989 RMK A01 T00031096  RH  047%=      5-min Rain = 0
KDC1 221334Z 23005KT 00/M10 A2989 RMK A01 T00031095  RH  048%=      5-min Rain = 0
KDC1 221335Z 23005KT 00/M09 A2989 RMK A01 T00031094  RH  048%=      5-min Rain = 0
KDC1 221336Z 24005KT 01/M09 A2989 RMK A01 T00051093  RH  048%=      5-min Rain = 0
KDC1 221337Z 24005KT 01/M09 A2989 RMK A01 T00071093  RH  047%=      5-min Rain = 0
KDC1 221338Z 23005KT 01/M09 A2989 RMK A01 T00081094  RH  046%=      5-min Rain = 0
KDC1 221339Z 22006KT 01/M10 A2989 RMK A01 T00071098  RH  045%=      5-min Rain = 0
KDC1 221340Z 22005KT 00/M10 A2989 RMK A01 T00021104  RH  045%=      5-min Rain = 0
KDC1 221341Z 23004KT 00/11 A2989 RMK A01 T00000-105  RH  045%=      5-min Rain = 0
KDC1 221342Z 22004KT M00/M10 A2989 RMK A01 T10011104  RH  046%=      5-min Rain = 0
KDC1 221343Z 22005KT M00/M10 A2989 RMK A01 T10021104  RH  046%=      5-min Rain = 0
KDC1 221344Z 22005KT M00/M10 A2989 RMK A01 T10031104  RH  046%=      5-min Rain = 0
KDC1 221345Z 22005KT M00/M11 A2989 RMK A01 T10031105  RH  046%=      5-min Rain = 0
KDC1 221346Z 22005KT M00/M11 A2989 RMK A01 T10031105  RH  046%=      5-min Rain = 0
KDC1 221347Z 23006KT M00/M11 A2989 RMK A01 T10021105  RH  046%=      5-min Rain = 0
KDC1 221348Z 23007KT M00/M11 A2989 RMK A01 T10021106  RH  045%=      5-min Rain = 0
KDC1 221349Z 23007KT M00/M11 A2989 RMK A01 T10031107  RH  045%=      5-min Rain = 0
KDC1 221350Z 23007KT M01/M11 A2989 RMK A01 T10061109  RH  046%=      5-min Rain = 0
KDC1 221351Z 23006KT M01/M11 A2989 RMK A01 T10081109  RH  046%=      5-min Rain = 0
KDC1 221352Z 23006KT M01/M11 A2989 RMK A01 T10101110  RH  047%=      5-min Rain = 0
KDC1 221353Z 23007KT M01/M11 A2989 RMK A01 T10131111  RH  047%=      5-min Rain = 0
KDC1 221354Z 23006KT M01/M11 A2989 RMK A01 T10141109  RH  048%=      5-min Rain = 0
KDC1 221355Z 23004KT M01/M11 A2989 RMK A01 T10131108  RH  048%=      5-min Rain = 0
KDC1 221356Z 22002KT M01/M11 A2989 RMK A01 T10121107  RH  048%=      5-min Rain = 0
KDC1 221357Z 20001KT M01/M11 A2989 RMK A01 T10111107  RH  048%=      5-min Rain = 0
KDC1 221358Z 18001KT M01/M11 A2989 RMK A01 T10101107  RH  048%=      5-min Rain = 0
KDC1 221359Z 20001KT M01/M11 A2989 RMK A01 T10101107  RH  048%=      5-min Rain = 0
KDC1 221400Z 23003KT M01/M11 A2989 RMK A01 T10091106  RH  048%=      5-min Rain = 0
KDC1 221401Z 24003KT M01/M11 A299 RMK A01 T10081105  RH  048%=      5-min Rain = 0
KDC1 221402Z 24004KT M01/M11 A299 RMK A01 T10081106  RH  048%=      5-min Rain = 0
KDC1 221403Z 24005KT M01/M11 A299 RMK A01 T10101107  RH  048%=      5-min Rain = 0
KDC1 221404Z 24006KT M01/M11 A299 RMK A01 T10111107  RH  048%=      5-min Rain = 0
KDC1 221405Z 24006KT M01/M11 A299 RMK A01 T10121107  RH  049%=      5-min Rain = 0
KDC1 221406Z 24006KT M01/M11 A299 RMK A01 T10121106  RH  049%=      5-min Rain = 0
KDC1 221407Z 24006KT M01/M11 A299 RMK A01 T10131106  RH  049%=      5-min Rain = 0
KDC1 221408Z 24005KT M01/M11 A299 RMK A01 T10121107  RH  049%=      5-min Rain = 0
KDC1 221409Z 24006KT M01/M11 A299 RMK A01 T10121108  RH  048%=      5-min Rain = 0
KDC1 221410Z 24006KT M01/M11 A299 RMK A01 T10121109  RH  048%=      5-min Rain = 0
KDC1 221411Z 24006KT M01/M11 A299 RMK A01 T10121109  RH  048%=      5-min Rain = 0
KDC1 221412Z 24006KT M01/M11 A299 RMK A01 T10111110  RH  047%=      5-min Rain = 0
KDC1 221413Z 25006KT M01/M11 A299 RMK A01 T10111110  RH  047%=      5-min Rain = 0
KDC1 221414Z 25007KT M01/M11 A299 RMK A01 T10101109  RH  047%=      5-min Rain = 0
KDC1 221415Z 26007KT M01/M11 A299 RMK A01 T10091106  RH  048%=      5-min Rain = 0
KDC1 221416Z 25006KT M01/M10 A299 RMK A01 T10091103  RH  049%=      5-min Rain = 0
KDC1 221417Z 25006KT M01/M10 A299 RMK A01 T10081101  RH  049%=      5-min Rain = 0
KDC1 221418Z 25006KT M01/M10 A299 RMK A01 T10081102  RH  049%=      5-min Rain = 0
KDC1 221419Z 25005KT M01/M10 A299 RMK A01 T10071101  RH  049%=      5-min Rain = 0
KDC1 221420Z 24005KT M01/M10 A299 RMK A01 T10061101  RH  049%=      5-min Rain = 0
KDC1 221421Z 24005KT M01/M10 A299 RMK A01 T10061101  RH  048%=      5-min Rain = 0
KDC1 221422Z 24006KT M01/M10 A299 RMK A01 T10051101  RH  048%=      5-min Rain = 0
KDC1 221423Z 24005KT M00/M10 A299 RMK A01 T10041100  RH  048%=      5-min Rain = 0
KDC1 221424Z 25006KT M00/M10 A299 RMK A01 T10031101  RH  048%=      5-min Rain = 0
KDC1 221425Z 25006KT M00/M10 A299 RMK A01 T10031101  RH  047%=      5-min Rain = 0
KDC1 221426Z 24005KT M00/M10 A299 RMK A01 T10021102  RH  047%=      5-min Rain = 0
KDC1 221427Z 25005KT M00/M10 A299 RMK A01 T10011102  RH  047%=      5-min Rain = 0
KDC1 221428Z 24005KT M00/M10 A299 RMK A01 T10011102  RH  047%=      5-min Rain = 0
KDC1 221429Z 24005KT 00/10 A299 RMK A01 T00000-101  RH  046%=      5-min Rain = 0
KDC1 221430Z 24005KT 00/M10 A299 RMK A01 T00011102  RH  046%=      5-min Rain = 0
KDC1 221431Z 24005KT 00/M10 A299 RMK A01 T00021102  RH  046%=      5-min Rain = 0
KDC1 221432Z 24005KT 00/M10 A299 RMK A01 T00031102  RH  045%=      5-min Rain = 0
KDC1 221433Z 23004KT 00/M10 A299 RMK A01 T00041102  RH  045%=      5-min Rain = 0
KDC1 221434Z 24004KT 01/M10 A299 RMK A01 T00051102  RH  044%=      5-min Rain = 0
KDC1 221435Z 23004KT 01/M10 A299 RMK A01 T00061102  RH  044%=      5-min Rain = 0
KDC1 221436Z 24005KT 01/M10 A299 RMK A01 T00071102  RH  044%=      5-min Rain = 0
KDC1 221437Z 23004KT 01/M10 A299 RMK A01 T00091102  RH  043%=      5-min Rain = 0
KDC1 221438Z 24005KT 01/M10 A299 RMK A01 T00091102  RH  043%=      5-min Rain = 0
KDC1 221439Z 24004KT 01/M10 A299 RMK A01 T00101102  RH  043%=      5-min Rain = 0
KDC1 221440Z 24004KT 01/M10 A299 RMK A01 T00111101  RH  043%=      5-min Rain = 0
KDC1 221441Z 24003KT 01/M10 A299 RMK A01 T00121100  RH  043%=      5-min Rain = 0
KDC1 221442Z 23003KT 01/M10 A299 RMK A01 T00131100  RH  043%=      5-min Rain = 0
KDC1 221443Z 25003KT 01/M10 A299 RMK A01 T00141100  RH  043%=      5-min Rain = 0
KDC1 221444Z 25003KT 02/M10 A299 RMK A01 T00151100  RH  042%=      5-min Rain = 0
KDC1 221445Z 25005KT 02/M10 A299 RMK A01 T00151100  RH  042%=      5-min Rain = 0
KDC1 221446Z 25004KT 02/M10 A299 RMK A01 T00161099  RH  042%=      5-min Rain = 0
KDC1 221447Z 25004KT 02/M10 A299 RMK A01 T00161098  RH  042%=      5-min Rain = 0
KDC1 221448Z 26003KT 02/M10 A299 RMK A01 T00181097  RH  042%=      5-min Rain = 0
KDC1 221449Z 25003KT 02/M10 A299 RMK A01 T00191095  RH  042%=      5-min Rain = 0
KDC1 221450Z 25002KT 02/M09 A299 RMK A01 T00201094  RH  043%=      5-min Rain = 0
KDC1 221451Z 25003KT 02/M09 A299 RMK A01 T00221093  RH  042%=      5-min Rain = 0
KDC1 221452Z 25003KT 02/M09 A299 RMK A01 T00231092  RH  042%=      5-min Rain = 0
KDC1 221453Z 25003KT 02/M09 A299 RMK A01 T00241091  RH  042%=      5-min Rain = 0
KDC1 221454Z 25003KT 03/M09 A299 RMK A01 T00251090  RH  042%=      5-min Rain = 0
KDC1 221455Z 26003KT 03/M09 A299 RMK A01 T00261089  RH  042%=      5-min Rain = 0
KDC1 221456Z 27002KT 03/M09 A299 RMK A01 T00271088  RH  042%=      5-min Rain = 0
KDC1 221457Z 26003KT 03/M08 A299 RMK A01 T00281084  RH  043%=      5-min Rain = 0
KDC1 221458Z 26003KT 03/M08 A299 RMK A01 T00291081  RH  044%=      5-min Rain = 0
KDC1 221459Z 26002KT 03/M08 A299 RMK A01 T00281080  RH  045%=      5-min Rain = 0
KDC1 221500Z 26003KT 03/M08 A299 RMK A01 T00281080  RH  045%=      5-min Rain = 0
KDC1 221501Z 25003KT 03/M08 A299 RMK A01 T00291078  RH  045%=      5-min Rain = 0
KDC1 221502Z 25002KT 03/M08 A299 RMK A01 T00311077  RH  045%=      5-min Rain = 0
KDC1 221503Z 24002KT 03/M08 A2991 RMK A01 T00331079  RH  044%=      5-min Rain = 0
KDC1 221504Z 23003KT 04/M08 A2991 RMK A01 T00351080  RH  043%=      5-min Rain = 0
KDC1 221505Z 25002KT 04/M08 A2991 RMK A01 T00361081  RH  042%=      5-min Rain = 0
KDC1 221506Z 25002KT 04/M08 A2991 RMK A01 T00371081  RH  042%=      5-min Rain = 0
KDC1 221507Z 24002KT 04/M08 A2991 RMK A01 T00381083  RH  041%=      5-min Rain = 0
KDC1 221508Z 22001KT 04/M08 A2991 RMK A01 T00391083  RH  041%=      5-min Rain = 0
KDC1 221509Z 20001KT 04/M08 A2991 RMK A01 T00401083  RH  040%=      5-min Rain = 0
KDC1 221510Z 24001KT 04/M08 A2991 RMK A01 T00411084  RH  040%=      5-min Rain = 0
KDC1 221511Z 24001KT 04/M08 A2991 RMK A01 T00411082  RH  040%=      5-min Rain = 0
KDC1 221512Z 25000KT 04/M08 A2991 RMK A01 T00421082  RH  040%=      5-min Rain = 0
KDC1 221513Z 00000KT 04/M08 A2991 RMK A01 T00441080  RH  040%=      5-min Rain = 0
KDC1 221514Z 00000KT 05/M08 A2991 RMK A01 T00451080  RH  040%=      5-min Rain = 0
KDC1 221515Z 23001KT 05/M08 A2991 RMK A01 T00471080  RH  039%=      5-min Rain = 0
KDC1 221516Z 24001KT 05/M08 A2991 RMK A01 T00481082  RH  038%=      5-min Rain = 0
KDC1 221517Z 24000KT 05/M08 A2991 RMK A01 T00491081  RH  038%=      5-min Rain = 0
KDC1 221518Z 00000KT 05/M08 A2991 RMK A01 T00501080  RH  038%=      5-min Rain = 0
KDC1 221519Z 16000KT 05/M08 A2991 RMK A01 T00521079  RH  038%=      5-min Rain = 0
KDC1 221520Z 17001KT 05/M08 A2991 RMK A01 T00541080  RH  037%=      5-min Rain = 0
KDC1 221521Z 00000KT 06/M08 A2991 RMK A01 T00551080  RH  037%=      5-min Rain = 0
KDC1 221522Z 16000KT 06/M08 A2991 RMK A01 T00571078  RH  037%=      5-min Rain = 0
KDC1 221523Z 17002KT 06/M08 A2991 RMK A01 T00591078  RH  037%=      5-min Rain = 0
KDC1 221524Z 15002KT 06/M08 A2991 RMK A01 T00591077  RH  037%=      5-min Rain = 0
KDC1 221525Z 14001KT 06/M08 A2991 RMK A01 T00591078  RH  037%=      5-min Rain = 0
KDC1 221526Z 14001KT 06/M08 A2991 RMK A01 T00591079  RH  036%=      5-min Rain = 0
KDC1 221527Z 13002KT 06/M08 A2991 RMK A01 T00591080  RH  036%=      5-min Rain = 0
KDC1 221528Z 12002KT 06/M08 A2991 RMK A01 T00591080  RH  036%=      5-min Rain = 0
KDC1 221529Z 11001KT 06/M08 A2991 RMK A01 T00591080  RH  036%=      5-min Rain = 0
KDC1 221530Z 10001KT 06/M08 A2991 RMK A01 T00581081  RH  036%=      5-min Rain = 0
KDC1 221531Z 10001KT 06/M08 A2991 RMK A01 T00581080  RH  036%=      5-min Rain = 0
KDC1 221532Z 17001KT 06/M08 A2991 RMK A01 T00591078  RH  037%=      5-min Rain = 0
KDC1 221533Z 16000KT 06/M08 A2991 RMK A01 T00621077  RH  036%=      5-min Rain = 0
KDC1 221534Z 15000KT 07/M08 A2991 RMK A01 T00661076  RH  036%=      5-min Rain = 0
KDC1 221535Z 16001KT 07/M08 A2991 RMK A01 T00691077  RH  035%=      5-min Rain = 0
KDC1 221536Z 14001KT 07/M08 A2991 RMK A01 T00701078  RH  034%=      5-min Rain = 0
KDC1 221537Z 17000KT 07/M08 A2991 RMK A01 T00721076  RH  034%=      5-min Rain = 0
KDC1 221538Z 02001KT 07/M08 A2991 RMK A01 T00731077  RH  034%=      5-min Rain = 0
KDC1 221539Z 01000KT 07/M08 A2991 RMK A01 T00711079  RH  033%=      5-min Rain = 0
KDC1 221540Z 13000KT 07/M08 A2991 RMK A01 T00691079  RH  034%=      5-min Rain = 0
KDC1 221541Z 13001KT 07/M08 A2991 RMK A01 T00691077  RH  034%=      5-min Rain = 0
KDC1 221542Z 10000KT 07/M08 A299 RMK A01 T00701076  RH  034%=      5-min Rain = 0
KDC1 221543Z 16001KT 07/M08 A299 RMK A01 T00711075  RH  035%=      5-min Rain = 0
KDC1 221544Z 17002KT 07/M08 A2991 RMK A01 T00711077  RH  034%=      5-min Rain = 0
KDC1 221545Z 19001KT 07/M08 A2991 RMK A01 T00721077  RH  034%=      5-min Rain = 0
KDC1 221546Z 18001KT 07/M08 A2991 RMK A01 T00721079  RH  033%=      5-min Rain = 0
KDC1 221547Z 16002KT 07/M08 A2991 RMK A01 T00721079  RH  033%=      5-min Rain = 0
KDC1 221548Z 16001KT 07/M08 A2991 RMK A01 T00741078  RH  033%=      5-min Rain = 0
KDC1 221549Z 19002KT 08/M08 A2991 RMK A01 T00751077  RH  033%=      5-min Rain = 0
KDC1 221550Z 19002KT 07/M08 A2991 RMK A01 T00741080  RH  032%=      5-min Rain = 0
KDC1 221551Z 17003KT 07/M08 A2991 RMK A01 T00731080  RH  033%=      5-min Rain = 0
KDC1 221552Z 17003KT 07/M08 A2991 RMK A01 T00731076  RH  034%=      5-min Rain = 0
KDC1 221553Z 23002KT 08/M08 A2991 RMK A01 T00751075  RH  034%=      5-min Rain = 0
KDC1 221554Z 17000KT 08/M08 A2991 RMK A01 T00771075  RH  033%=      5-min Rain = 0
KDC1 221555Z 15001KT 08/M07 A2991 RMK A01 T00791074  RH  033%=      5-min Rain = 0
KDC1 221556Z 22002KT 08/M07 A2991 RMK A01 T00821074  RH  032%=      5-min Rain = 0
KDC1 221557Z 17001KT 08/M08 A2991 RMK A01 T00821078  RH  031%=      5-min Rain = 0
KDC1 221558Z 17003KT 08/M08 A2991 RMK A01 T00801077  RH  032%=      5-min Rain = 0
KDC1 221559Z 18003KT 08/M08 A2991 RMK A01 T00801075  RH  033%=      5-min Rain = 0
KDC1 221600Z 16003KT 08/M08 A2991 RMK A01 T00791077  RH  032%=      5-min Rain = 0
KDC1 221601Z 14002KT 08/M08 A2991 RMK A01 T00781077  RH  032%=      5-min Rain = 0
KDC1 221602Z 17002KT 08/M08 A2991 RMK A01 T00791076  RH  033%=      5-min Rain = 0
KDC1 221603Z 18002KT 08/M08 A2991 RMK A01 T00811076  RH  032%=      5-min Rain = 0
KDC1 221604Z 16003KT 08/M07 A2991 RMK A01 T00811073  RH  033%=      5-min Rain = 0
KDC1 221605Z 18003KT 08/M07 A2991 RMK A01 T00821072  RH  033%=      5-min Rain = 0
KDC1 221606Z 17002KT 08/M07 A299 RMK A01 T00831072  RH  033%=      5-min Rain = 0
KDC1 221607Z 19003KT 08/M08 A299 RMK A01 T00831076  RH  031%=      5-min Rain = 0
KDC1 221608Z 19003KT 08/M08 A2991 RMK A01 T00831078  RH  031%=      5-min Rain = 0
KDC1 221609Z 17002KT 08/M08 A2991 RMK A01 T00821077  RH  032%=      5-min Rain = 0
KDC1 221610Z 12001KT 08/M08 A299 RMK A01 T00821076  RH  032%=      5-min Rain = 0
KDC1 221611Z 10001KT 08/M08 A299 RMK A01 T00841076  RH  032%=      5-min Rain = 0
KDC1 221612Z 11001KT 09/M07 A299 RMK A01 T00861074  RH  032%=      5-min Rain = 0
KDC1 221613Z 08001KT 09/M08 A299 RMK A01 T00871076  RH  031%=      5-min Rain = 0
KDC1 221614Z 07002KT 09/M08 A299 RMK A01 T00871075  RH  031%=      5-min Rain = 0
KDC1 221615Z 07003KT 09/M08 A299 RMK A01 T00871075  RH  031%=      5-min Rain = 0
KDC1 221616Z 09003KT 09/M07 A299 RMK A01 T00871074  RH  031%=      5-min Rain = 0
KDC1 221617Z 09003KT 09/M07 A299 RMK A01 T00861073  RH  032%=      5-min Rain = 0
KDC1 221618Z 10002KT 09/M07 A299 RMK A01 T00861073  RH  032%=      5-min Rain = 0
KDC1 221619Z 09001KT 09/M07 A299 RMK A01 T00861073  RH  031%=      5-min Rain = 0
KDC1 221620Z 09001KT 09/M07 A299 RMK A01 T00881073  RH  031%=      5-min Rain = 0
KDC1 221621Z 09003KT 09/M07 A299 RMK A01 T00901071  RH  031%=      5-min Rain = 0
KDC1 221622Z 08002KT 09/M07 A299 RMK A01 T00901072  RH  031%=      5-min Rain = 0
KDC1 221623Z 08001KT 09/M07 A299 RMK A01 T00891072  RH  031%=      5-min Rain = 0
KDC1 221624Z 09001KT 09/M07 A299 RMK A01 T00891070  RH  032%=      5-min Rain = 0
KDC1 221625Z 07002KT 09/M07 A299 RMK A01 T00891071  RH  032%=      5-min Rain = 0
KDC1 221626Z 08001KT 09/M07 A299 RMK A01 T00891069  RH  032%=      5-min Rain = 0
KDC1 221627Z 11001KT 09/M07 A299 RMK A01 T00921067  RH  032%=      5-min Rain = 0
KDC1 221628Z 19000KT 10/M07 A299 RMK A01 T00961065  RH  031%=      5-min Rain = 0
KDC1 221629Z 06000KT 10/M07 A299 RMK A01 T00981067  RH  031%=      5-min Rain = 0
KDC1 221630Z 08001KT 10/M07 A299 RMK A01 T00981066  RH  031%=      5-min Rain = 0
KDC1 221631Z 07003KT 10/M07 A299 RMK A01 T00981066  RH  031%=      5-min Rain = 0
KDC1 221632Z 08003KT 10/M07 A299 RMK A01 T00971068  RH  031%=      5-min Rain = 0
KDC1 221633Z 09004KT 10/M07 A299 RMK A01 T00961067  RH  031%=      5-min Rain = 0
KDC1 221634Z 08004KT 10/M07 A299 RMK A01 T00951068  RH  031%=      5-min Rain = 0
KDC1 221635Z 08004KT 09/M07 A299 RMK A01 T00911072  RH  031%=      5-min Rain = 0
KDC1 221636Z 06004KT 09/M07 A299 RMK A01 T00901071  RH  031%=      5-min Rain = 0
KDC1 221637Z 10003KT 09/M07 A299 RMK A01 T00901070  RH  032%=      5-min Rain = 0
KDC1 221638Z 11003KT 09/M07 A299 RMK A01 T00901070  RH  031%=      5-min Rain = 0
KDC1 221639Z 08003KT 09/M07 A299 RMK A01 T00911071  RH  031%=      5-min Rain = 0
KDC1 221640Z 07004KT 09/M07 A299 RMK A01 T00911071  RH  031%=      5-min Rain = 0
KDC1 221641Z 07004KT 09/M07 A299 RMK A01 T00911073  RH  031%=      5-min Rain = 0
KDC1 221642Z 08005KT 09/M07 A299 RMK A01 T00891073  RH  031%=      5-min Rain = 0
KDC1 221643Z 06004KT 09/M07 A299 RMK A01 T00891074  RH  031%=      5-min Rain = 0
KDC1 221644Z 06004KT 09/M07 A299 RMK A01 T00881074  RH  031%=      5-min Rain = 0
KDC1 221645Z 06003KT 09/M07 A299 RMK A01 T00881073  RH  031%=      5-min Rain = 0
KDC1 221646Z 07003KT 09/M07 A299 RMK A01 T00891072  RH  031%=      5-min Rain = 0
KDC1 221647Z 08003KT 09/M07 A299 RMK A01 T00901070  RH  032%=      5-min Rain = 0
KDC1 221648Z 08003KT 09/M07 A299 RMK A01 T00921071  RH  031%=      5-min Rain = 0
KDC1 221649Z 08002KT 09/M07 A299 RMK A01 T00921072  RH  031%=      5-min Rain = 0
KDC1 221650Z 09002KT 09/M07 A299 RMK A01 T00921070  RH  031%=      5-min Rain = 0
KDC1 221651Z 08002KT 09/M07 A299 RMK A01 T00931072  RH  030%=      5-min Rain = 0
KDC1 221652Z 08003KT 09/M07 A299 RMK A01 T00941071  RH  030%=      5-min Rain = 0
KDC1 221653Z 08003KT 09/M07 A299 RMK A01 T00941072  RH  030%=      5-min Rain = 0
KDC1 221654Z 07003KT 09/M07 A299 RMK A01 T00941071  RH  031%=      5-min Rain = 0
KDC1 221655Z 11003KT 10/M07 A299 RMK A01 T00951069  RH  031%=      5-min Rain = 0
KDC1 221656Z 10003KT 10/M07 A299 RMK A01 T00961069  RH  031%=      5-min Rain = 0
KDC1 221657Z 10003KT 10/M07 A299 RMK A01 T00961070  RH  030%=      5-min Rain = 0
KDC1 221658Z 10003KT 10/M07 A299 RMK A01 T00961070  RH  030%=      5-min Rain = 0
KDC1 221659Z 09004KT 10/M07 A299 RMK A01 T00981068  RH  030%=      5-min Rain = 0
KDC1 221700Z 09003KT 10/M07 A299 RMK A01 T00981069  RH  030%=      5-min Rain = 0
KDC1 221701Z 08003KT 10/M07 A299 RMK A01 T00981070  RH  030%=      5-min Rain = 0
KDC1 221702Z 07003KT 10/M07 A299 RMK A01 T00971069  RH  030%=      5-min Rain = 0
KDC1 221703Z 08004KT 10/M07 A299 RMK A01 T00991065  RH  031%=      5-min Rain = 0
KDC1 221704Z 07003KT 10/M07 A2989 RMK A01 T01001069  RH  030%=      5-min Rain = 0
KDC1 221705Z 07003KT 10/M07 A299 RMK A01 T00991068  RH  030%=      5-min Rain = 0
KDC1 221706Z 09004KT 10/M07 A2989 RMK A01 T01001069  RH  030%=      5-min Rain = 0
KDC1 221707Z 08003KT 10/M07 A2989 RMK A01 T00991072  RH  029%=      5-min Rain = 0
KDC1 221708Z 09004KT 10/M07 A2989 RMK A01 T00981071  RH  030%=      5-min Rain = 0
KDC1 221709Z 09004KT 10/M07 A2989 RMK A01 T00981070  RH  030%=      5-min Rain = 0
KDC1 221710Z 09004KT 10/M07 A2989 RMK A01 T00991071  RH  030%=      5-min Rain = 0
KDC1 221711Z 09004KT 10/M07 A2989 RMK A01 T00991071  RH  029%=      5-min Rain = 0
KDC1 221712Z 09004KT 10/M07 A2989 RMK A01 T01001069  RH  030%=      5-min Rain = 0
KDC1 221713Z 08004KT 10/M07 A2989 RMK A01 T01011069  RH  029%=      5-min Rain = 0
KDC1 221714Z 08004KT 10/M07 A2989 RMK A01 T01021071  RH  029%=      5-min Rain = 0
KDC1 221715Z 07004KT 10/M07 A2989 RMK A01 T01021070  RH  029%=      5-min Rain = 0
KDC1 221716Z 08004KT 10/M07 A2989 RMK A01 T01021070  RH  029%=      5-min Rain = 0
KDC1 221717Z 09004KT 10/M07 A2989 RMK A01 T01031069  RH  029%=      5-min Rain = 0
KDC1 221718Z 09004KT 10/M07 A2989 RMK A01 T01031070  RH  029%=      5-min Rain = 0
KDC1 221719Z 07004KT 10/M07 A2989 RMK A01 T01031071  RH  029%=      5-min Rain = 0
KDC1 221720Z 07003KT 10/M07 A2989 RMK A01 T01031070  RH  029%=      5-min Rain = 0
KDC1 221721Z 07004KT 10/M07 A2989 RMK A01 T01031068  RH  029%=      5-min Rain = 0
KDC1 221722Z 08004KT 11/M07 A2989 RMK A01 T01061065  RH  029%=      5-min Rain = 0
KDC1 221723Z 08005KT 11/M07 A2989 RMK A01 T01091068  RH  028%=      5-min Rain = 0
KDC1 221724Z 09004KT 11/M07 A2989 RMK A01 T01101070  RH  028%=      5-min Rain = 0
KDC1 221725Z 09004KT 11/M07 A2989 RMK A01 T01091070  RH  028%=      5-min Rain = 0
KDC1 221726Z 08004KT 11/M07 A2988 RMK A01 T01091070  RH  028%=      5-min Rain = 0
KDC1 221727Z 08005KT 11/M07 A2988 RMK A01 T01101070  RH  028%=      5-min Rain = 0
KDC1 221728Z 07004KT 11/M07 A2988 RMK A01 T01091071  RH  028%=      5-min Rain = 0
KDC1 221729Z 05003KT 11/M07 A2988 RMK A01 T01091071  RH  028%=      5-min Rain = 0
KDC1 221730Z 07004KT 11/M07 A2988 RMK A01 T01091072  RH  027%=      5-min Rain = 0
KDC1 221731Z 08003KT 11/M07 A2989 RMK A01 T01091072  RH  027%=      5-min Rain = 0
KDC1 221732Z 08004KT 11/M07 A2989 RMK A01 T01101069  RH  028%=      5-min Rain = 0
KDC1 221733Z 07004KT 11/M07 A2988 RMK A01 T01111068  RH  028%=      5-min Rain = 0
KDC1 221734Z 06003KT 11/M07 A2988 RMK A01 T01121068  RH  028%=      5-min Rain = 0
KDC1 221735Z 06003KT 11/M07 A2988 RMK A01 T01131069  RH  027%=      5-min Rain = 0
KDC1 221736Z 09003KT 11/M07 A2988 RMK A01 T01121068  RH  028%=      5-min Rain = 0
KDC1 221737Z 11002KT 11/M07 A2988 RMK A01 T01131073  RH  026%=      5-min Rain = 0
KDC1 221738Z 11005KT 11/M07 A2988 RMK A01 T01141070  RH  027%=      5-min Rain = 0
KDC1 221739Z 13005KT 12/M07 A2988 RMK A01 T01171071  RH  026%=      5-min Rain = 0
KDC1 221740Z 14004KT 12/M07 A2988 RMK A01 T01181073  RH  026%=      5-min Rain = 0
KDC1 221741Z 14004KT 12/M07 A2988 RMK A01 T01181072  RH  026%=      5-min Rain = 0
KDC1 221742Z 14004KT 12/M07 A2988 RMK A01 T01181068  RH  026%=      5-min Rain = 0
KDC1 221743Z 12005KT 12/M06 A2988 RMK A01 T01201063  RH  027%=      5-min Rain = 0
KDC1 221744Z 13002KT 12/M07 A2988 RMK A01 T01191066  RH  027%=      5-min Rain = 0
KDC1 221745Z 14003KT 12/M07 A2988 RMK A01 T01191067  RH  027%=      5-min Rain = 0
KDC1 221746Z 13003KT 12/M07 A2988 RMK A01 T01201070  RH  026%=      5-min Rain = 0
KDC1 221747Z 13004KT 12/M07 A2988 RMK A01 T01201071  RH  026%=      5-min Rain = 0
KDC1 221748Z 12004KT 12/M07 A2988 RMK A01 T01211069  RH  026%=      5-min Rain = 0
KDC1 221749Z 12005KT 12/M07 A2988 RMK A01 T01211069  RH  026%=      5-min Rain = 0
KDC1 221750Z 09004KT 12/M07 A2988 RMK A01 T01211074  RH  025%=      5-min Rain = 0
KDC1 221751Z 11003KT 12/M08 A2988 RMK A01 T01191075  RH  025%=      5-min Rain = 0
KDC1 221752Z 09002KT 12/M07 A2988 RMK A01 T01191070  RH  026%=      5-min Rain = 0
KDC1 221753Z 09003KT 12/M07 A2988 RMK A01 T01211067  RH  026%=      5-min Rain = 0
KDC1 221754Z 13005KT 12/M07 A2987 RMK A01 T01231068  RH  026%=      5-min Rain = 0
KDC1 221755Z 11005KT 13/M07 A2987 RMK A01 T01251072  RH  025%=      5-min Rain = 0
KDC1 221756Z 09005KT 12/M07 A2987 RMK A01 T01241069  RH  025%=      5-min Rain = 0
KDC1 221757Z 09005KT 12/M07 A2987 RMK A01 T01241069  RH  025%=      5-min Rain = 0
KDC1 221758Z 08005KT 13/M07 A2987 RMK A01 T01271068  RH  025%=      5-min Rain = 0
KDC1 221759Z 09005KT 13/M07 A2987 RMK A01 T01251073  RH  024%=      5-min Rain = 0
KDC1 221800Z 09003KT 12/M08 A2987 RMK A01 T01231076  RH  024%=      5-min Rain = 0
KDC1 221801Z 08005KT 12/M08 A2987 RMK A01 T01221075  RH  025%=      5-min Rain = 0
KDC1 221802Z 08005KT 12/M07 A2987 RMK A01 T01231074  RH  025%=      5-min Rain = 0
KDC1 221803Z 10005KT 12/M08 A2987 RMK A01 T01231076  RH  024%=      5-min Rain = 0
KDC1 221804Z 11004KT 12/M08 A2987 RMK A01 T01231075  RH  024%=      5-min Rain = 0
KDC1 221805Z 11003KT 12/M08 A2987 RMK A01 T01221076  RH  024%=      5-min Rain = 0
KDC1 221806Z 10005KT 12/M08 A2987 RMK A01 T01231077  RH  024%=      5-min Rain = 0
KDC1 221807Z 10004KT 12/M08 A2987 RMK A01 T01231081  RH  023%=      5-min Rain = 0
KDC1 221808Z 11003KT 12/M08 A2987 RMK A01 T01241081  RH  023%=      5-min Rain = 0
KDC1 221809Z 08005KT 13/M07 A2987 RMK A01 T01271073  RH  024%=      5-min Rain = 0
KDC1 221810Z 07007KT 13/M07 A2987 RMK A01 T01301073  RH  024%=      5-min Rain = 0
KDC1 221811Z 06005KT 13/M08 A2987 RMK A01 T01291077  RH  023%=      5-min Rain = 0
KDC1 221812Z 08005KT 13/M08 A2987 RMK A01 T01271076  RH  024%=      5-min Rain = 0
KDC1 221813Z 07005KT 13/M07 A2987 RMK A01 T01261073  RH  024%=      5-min Rain = 0
KDC1 221814Z 10006KT 13/M08 A2987 RMK A01 T01271075  RH  024%=      5-min Rain = 0
KDC1 221815Z 10005KT 13/M08 A2987 RMK A01 T01291078  RH  023%=      5-min Rain = 0
KDC1 221816Z 08005KT 13/M08 A2987 RMK A01 T01301075  RH  023%=      5-min Rain = 0
KDC1 221817Z 08005KT 13/M08 A2987 RMK A01 T01321079  RH  022%=      5-min Rain = 0
KDC1 221818Z 09005KT 13/M08 A2987 RMK A01 T01331077  RH  022%=      5-min Rain = 0
KDC1 221819Z 09006KT 13/M08 A2987 RMK A01 T01341077  RH  022%=      5-min Rain = 0
KDC1 221820Z 09005KT 14/M08 A2987 RMK A01 T01351081  RH  022%=      5-min Rain = 0
KDC1 221821Z 08005KT 14/M08 A2987 RMK A01 T01351082  RH  021%=      5-min Rain = 0
KDC1 221822Z 10005KT 13/M08 A2986 RMK A01 T01331082  RH  022%=      5-min Rain = 0
KDC1 221823Z 11006KT 13/M08 A2986 RMK A01 T01341081  RH  022%=      5-min Rain = 0
KDC1 221824Z 10003KT 13/M08 A2986 RMK A01 T01341080  RH  022%=      5-min Rain = 0
KDC1 221825Z 09005KT 14/M08 A2986 RMK A01 T01371075  RH  022%=      5-min Rain = 0
KDC1 221826Z 10005KT 14/M08 A2986 RMK A01 T01391080  RH  021%=      5-min Rain = 0
KDC1 221827Z 09004KT 14/M08 A2986 RMK A01 T01381082  RH  021%=      5-min Rain = 0
KDC1 221828Z 08005KT 14/M08 A2986 RMK A01 T01391082  RH  021%=      5-min Rain = 0
KDC1 221829Z 10004KT 14/M08 A2986 RMK A01 T01391081  RH  021%=      5-min Rain = 0
KDC1 221830Z 13005KT 14/M07 A2986 RMK A01 T01411074  RH  022%=      5-min Rain = 0
KDC1 221831Z 11006KT 14/M07 A2986 RMK A01 T01431074  RH  022%=      5-min Rain = 0
KDC1 221832Z 10005KT 14/M08 A2986 RMK A01 T01431076  RH  021%=      5-min Rain = 0
KDC1 221833Z 07003KT 14/M08 A2986 RMK A01 T01421082  RH  020%=      5-min Rain = 0
KDC1 221834Z 12004KT 14/M08 A2985 RMK A01 T01411082  RH  021%=      5-min Rain = 0
KDC1 221835Z 11004KT 14/M08 A2985 RMK A01 T01401082  RH  021%=      5-min Rain = 0
KDC1 221836Z 10002KT 14/M08 A2985 RMK A01 T01401084  RH  020%=      5-min Rain = 0
KDC1 221837Z 08002KT 14/M09 A2985 RMK A01 T01391086  RH  020%=      5-min Rain = 0
KDC1 221838Z 07002KT 14/M08 A2985 RMK A01 T01391084  RH  020%=      5-min Rain = 0
KDC1 221839Z 03001KT 14/M08 A2985 RMK A01 T01381084  RH  021%=      5-min Rain = 0
KDC1 221840Z 05002KT 14/M08 A2985 RMK A01 T01381084  RH  021%=      5-min Rain = 0
KDC1 221841Z 09002KT 14/M08 A2985 RMK A01 T01391081  RH  021%=      5-min Rain = 0
KDC1 221842Z 12002KT 14/M08 A2985 RMK A01 T01401079  RH  021%=      5-min Rain = 0
KDC1 221843Z 09001KT 14/M08 A2985 RMK A01 T01421079  RH  021%=      5-min Rain = 0
KDC1 221844Z 06002KT 15/M07 A2984 RMK A01 T01451074  RH  021%=      5-min Rain = 0
KDC1 221845Z 11004KT 15/M08 A2985 RMK A01 T01471075  RH  021%=      5-min Rain = 0
KDC1 221846Z 12005KT 15/M08 A2984 RMK A01 T01481077  RH  020%=      5-min Rain = 0
KDC1 221847Z 12005KT 15/M08 A2984 RMK A01 T01461081  RH  020%=      5-min Rain = 0
KDC1 221848Z 12004KT 14/M08 A2984 RMK A01 T01441079  RH  021%=      5-min Rain = 0
KDC1 221849Z 14004KT 15/M08 A2984 RMK A01 T01451075  RH  021%=      5-min Rain = 0
KDC1 221850Z 14003KT 15/M08 A2984 RMK A01 T01471076  RH  021%=      5-min Rain = 0
KDC1 221851Z 11004KT 15/M08 A2984 RMK A01 T01471078  RH  020%=      5-min Rain = 0
KDC1 221852Z 09002KT 15/M08 A2984 RMK A01 T01461078  RH  020%=      5-min Rain = 0
KDC1 221853Z 08004KT 15/M08 A2984 RMK A01 T01471076  RH  021%=      5-min Rain = 0
KDC1 221854Z 07002KT 15/M08 A2984 RMK A01 T01451080  RH  020%=      5-min Rain = 0
KDC1 221855Z 09001KT 14/M08 A2984 RMK A01 T01441080  RH  020%=      5-min Rain = 0
KDC1 221856Z 04002KT 14/M08 A2984 RMK A01 T01441078  RH  021%=      5-min Rain = 0
KDC1 221857Z 01003KT 15/M08 A2984 RMK A01 T01451080  RH  020%=      5-min Rain = 0
KDC1 221858Z 35003KT 15/M08 A2984 RMK A01 T01461079  RH  020%=      5-min Rain = 0
KDC1 221859Z 34003KT 15/M08 A2984 RMK A01 T01471080  RH  020%=      5-min Rain = 0
KDC1 221900Z 30001KT 15/M08 A2984 RMK A01 T01451081  RH  020%=      5-min Rain = 0
KDC1 221901Z 31000KT 15/M08 A2983 RMK A01 T01451079  RH  020%=      5-min Rain = 0
KDC1 221902Z 15000KT 15/M08 A2983 RMK A01 T01481076  RH  021%=      5-min Rain = 0
KDC1 221903Z 19005KT 15/M07 A2983 RMK A01 T01511071  RH  021%=      5-min Rain = 0
KDC1 221904Z 19005KT 15/M08 A2983 RMK A01 T01531076  RH  020%=      5-min Rain = 0
KDC1 221905Z 14003KT 15/M08 A2983 RMK A01 T01531076  RH  020%=      5-min Rain = 0
KDC1 221906Z 10006KT 15/M07 A2983 RMK A01 T01531072  RH  020%=      5-min Rain = 0
KDC1 221907Z 11007KT 15/M07 A2982 RMK A01 T01531072  RH  020%=      5-min Rain = 0
KDC1 221908Z 13007KT 15/M07 A2983 RMK A01 T01531070  RH  021%=      5-min Rain = 0
KDC1 221909Z 13005KT 15/M07 A2983 RMK A01 T01531066  RH  022%=      5-min Rain = 0
KDC1 221910Z 12005KT 15/M07 A2982 RMK A01 T01531065  RH  022%=      5-min Rain = 0
KDC1 221911Z 14005KT 15/M07 A2982 RMK A01 T01531071  RH  021%=      5-min Rain = 0
KDC1 221912Z 12005KT 15/M07 A2982 RMK A01 T01531068  RH  021%=      5-min Rain = 0
KDC1 221913Z 11007KT 16/M07 A2982 RMK A01 T01551071  RH  020%=      5-min Rain = 0
KDC1 221914Z 15006KT 15/M07 A2982 RMK A01 T01541067  RH  021%=      5-min Rain = 0
KDC1 221915Z 13007KT 16/M06 A2982 RMK A01 T01561064  RH  021%=      5-min Rain = 0
KDC1 221916Z 15006KT 16/M06 A2982 RMK A01 T01571062  RH  022%=      5-min Rain = 0
KDC1 221917Z 17005KT 16/M06 A2982 RMK A01 T01591062  RH  021%=      5-min Rain = 0
KDC1 221918Z 18008KT 16/M06 A2982 RMK A01 T01601063  RH  021%=      5-min Rain = 0
KDC1 221919Z 19005KT 16/M06 A2981 RMK A01 T01611064  RH  021%=      5-min Rain = 0
KDC1 221920Z 15007KT 16/M07 A2981 RMK A01 T01611068  RH  020%=      5-min Rain = 0
KDC1 221921Z 14010KT 16/M06 A2981 RMK A01 T01601060  RH  021%=      5-min Rain = 0
KDC1 221922Z 13009KT 16/M06 A2981 RMK A01 T01611058  RH  022%=      5-min Rain = 0
KDC1 221923Z 12008KT 16/M06 A2981 RMK A01 T01621058  RH  022%=      5-min Rain = 0
KDC1 221924Z 10006KT 16/M07 A2981 RMK A01 T01611066  RH  020%=      5-min Rain = 0
KDC1 221925Z 10006KT 16/M07 A2981 RMK A01 T01601070  RH  020%=      5-min Rain = 0
KDC1 221926Z 14005KT 16/M06 A2981 RMK A01 T01611061  RH  021%=      5-min Rain = 0
KDC1 221927Z 12004KT 16/M06 A298 RMK A01 T01631061  RH  021%=      5-min Rain = 0
KDC1 221928Z 13004KT 16/M06 A298 RMK A01 T01631059  RH  021%=      5-min Rain = 0
KDC1 221929Z 15003KT 16/M06 A298 RMK A01 T01641058  RH  021%=      5-min Rain = 0
KDC1 221930Z 13004KT 17/M06 A298 RMK A01 T01651063  RH  020%=      5-min Rain = 0
KDC1 221931Z 13006KT 17/M06 A298 RMK A01 T01651059  RH  021%=      5-min Rain = 0
KDC1 221932Z 11007KT 17/M06 A298 RMK A01 T01651063  RH  020%=      5-min Rain = 0
KDC1 221933Z 11009KT 16/M06 A298 RMK A01 T01641062  RH  021%=      5-min Rain = 0
KDC1 221934Z 12011KT 17/M05 A298 RMK A01 T01651053  RH  022%=      5-min Rain = 0
KDC1 221935Z 11009KT 17/M06 A298 RMK A01 T01681056  RH  021%=      5-min Rain = 0
KDC1 221936Z 11008KT 17/M06 A298 RMK A01 T01661063  RH  020%=      5-min Rain = 0
KDC1 221937Z 12005KT 17/M06 A298 RMK A01 T01651062  RH  020%=      5-min Rain = 0
KDC1 221938Z 13004KT 17/M06 A298 RMK A01 T01661060  RH  021%=      5-min Rain = 0
KDC1 221939Z 14003KT 17/M06 A298 RMK A01 T01661064  RH  020%=      5-min Rain = 0
KDC1 221940Z 11003KT 17/M06 A2979 RMK A01 T01651063  RH  020%=      5-min Rain = 0
KDC1 221941Z 08005G10KT 17/M06 A2979 RMK A01 T01651063  RH  020%=      5-min Rain = 0
KDC1 221942Z 12007KT 17/M06 A2979 RMK A01 T01661063  RH  020%=      5-min Rain = 0
KDC1 221943Z 12006KT 17/M07 A2979 RMK A01 T01651065  RH  020%=      5-min Rain = 0
KDC1 221944Z 12007KT 17/M06 A2979 RMK A01 T01651059  RH  021%=      5-min Rain = 0
KDC1 221945Z 14012KT 17/M05 A2979 RMK A01 T01671047  RH  023%=      5-min Rain = 0
KDC1 221946Z 15011KT 17/M05 A2979 RMK A01 T01721048  RH  022%=      5-min Rain = 0
KDC1 221947Z 17013KT 18/M04 A2979 RMK A01 T01751044  RH  022%=      5-min Rain = 0
KDC1 221948Z 16010KT 17/M05 A2978 RMK A01 T01741049  RH  021%=      5-min Rain = 0
KDC1 221949Z 16012KT 17/M05 A2978 RMK A01 T01741045  RH  022%=      5-min Rain = 0
KDC1 221950Z 17008KT 17/M05 A2978 RMK A01 T01731050  RH  021%=      5-min Rain = 0
KDC1 221951Z 18007KT 17/M04 A2978 RMK A01 T01721044  RH  022%=      5-min Rain = 0
KDC1 221952Z 20006KT 17/M06 A2978 RMK A01 T01721057  RH  020%=      5-min Rain = 0
KDC1 221953Z 20003KT 17/M06 A2978 RMK A01 T01721059  RH  020%=      5-min Rain = 0
KDC1 221954Z 14004KT 17/M06 A2978 RMK A01 T01721060  RH  020%=      5-min Rain = 0
KDC1 221955Z 16007KT 17/M04 A2977 RMK A01 T01741044  RH  022%=      5-min Rain = 0
KDC1 221956Z 18008KT 18/M05 A2977 RMK A01 T01771046  RH  022%=      5-min Rain = 0
KDC1 221957Z 19007KT 18/M05 A2978 RMK A01 T01761051  RH  021%=      5-min Rain = 0
KDC1 221958Z 20009KT 18/M04 A2978 RMK A01 T01781042  RH  022%=      5-min Rain = 0
KDC1 221959Z 19012G20KT 18/M05 A2978 RMK A01 T01831047  RH  021%=      5-min Rain = 0
KDC1 222000Z 20008KT 18/M05 A2977 RMK A01 T01831052  RH  020%=      5-min Rain = 0
KDC1 222001Z 20015KT 18/M05 A2977 RMK A01 T01811051  RH  020%=      5-min Rain = 0
KDC1 222002Z 20011KT 18/M05 A2977 RMK A01 T01811050  RH  020%=      5-min Rain = 0
KDC1 222003Z 20011G21KT 18/M05 A2977 RMK A01 T01831049  RH  020%=      5-min Rain = 0
KDC1 222004Z 22014G22KT 18/M05 A2977 RMK A01 T01841051  RH  020%=      5-min Rain = 0
KDC1 222005Z 20014G21KT 18/M05 A2977 RMK A01 T01841051  RH  020%=      5-min Rain = 0
KDC1 222006Z 21013G19KT 18/M05 A2977 RMK A01 T01841052  RH  020%=      5-min Rain = 0
KDC1 222007Z 23009G16KT 18/M05 A2977 RMK A01 T01831052  RH  020%=      5-min Rain = 0
KDC1 222008Z 20011G18KT 19/M05 A2977 RMK A01 T01851050  RH  020%=      5-min Rain = 0
KDC1 222009Z 20010KT 19/M05 A2977 RMK A01 T01871049  RH  020%=      5-min Rain = 0
KDC1 222010Z 20013G18KT 19/M05 A2977 RMK A01 T01861051  RH  020%=      5-min Rain = 0
KDC1 222011Z 21011G17KT 18/M05 A2977 RMK A01 T01821054  RH  020%=      5-min Rain = 0
KDC1 222012Z 20011KT 18/M05 A2977 RMK A01 T01811052  RH  020%=      5-min Rain = 0
KDC1 222013Z 20010KT 18/M05 A2976 RMK A01 T01821052  RH  020%=      5-min Rain = 0
KDC1 222014Z 22008KT 18/M05 A2976 RMK A01 T01821052  RH  020%=      5-min Rain = 0
KDC1 222015Z 22009KT 18/M05 A2976 RMK A01 T01841051  RH  020%=      5-min Rain = 0
KDC1 222016Z 19011G20KT 19/M05 A2976 RMK A01 T01861050  RH  020%=      5-min Rain = 0
KDC1 222017Z 19017KT 19/M05 A2976 RMK A01 T01881049  RH  020%=      5-min Rain = 0
KDC1 222018Z 21010G17KT 19/M06 A2976 RMK A01 T01851055  RH  019%=      5-min Rain = 0
KDC1 222019Z 21007KT 18/M06 A2976 RMK A01 T01831055  RH  019%=      5-min Rain = 0
KDC1 222020Z 21009KT 18/M05 A2976 RMK A01 T01831054  RH  019%=      5-min Rain = 0
KDC1 222021Z 23011G17KT 18/M05 A2976 RMK A01 T01831053  RH  020%=      5-min Rain = 0
KDC1 222022Z 23013G19KT 19/M05 A2975 RMK A01 T01851053  RH  019%=      5-min Rain = 0
KDC1 222023Z 22010KT 19/M05 A2975 RMK A01 T01861053  RH  019%=      5-min Rain = 0
KDC1 222024Z 21012KT 19/M05 A2975 RMK A01 T01881051  RH  019%=      5-min Rain = 0
KDC1 222025Z 21009G14KT 19/M05 A2975 RMK A01 T01891051  RH  019%=      5-min Rain = 0
KDC1 222026Z 19010KT 19/M05 A2975 RMK A01 T01901050  RH  019%=      5-min Rain = 0
KDC1 222027Z 19010KT 19/M05 A2975 RMK A01 T01911045  RH  020%=      5-min Rain = 0
KDC1 222028Z 21008G13KT 19/M05 A2975 RMK A01 T01921046  RH  019%=      5-min Rain = 0
KDC1 222029Z 21009G14KT 19/M05 A2975 RMK A01 T01941049  RH  019%=      5-min Rain = 0
KDC1 222030Z 20014G22KT 19/M05 A2975 RMK A01 T01941049  RH  019%=      5-min Rain = 0
KDC1 222031Z 21012G17KT 19/M05 A2975 RMK A01 T01931050  RH  019%=      5-min Rain = 0
KDC1 222032Z 20012KT 19/M05 A2975 RMK A01 T01901052  RH  019%=      5-min Rain = 0
KDC1 222033Z 20011KT 19/M05 A2975 RMK A01 T01901050  RH  019%=      5-min Rain = 0
KDC1 222034Z 19015G20KT 19/M05 A2974 RMK A01 T01901051  RH  019%=      5-min Rain = 0
KDC1 222035Z 18015KT 19/M05 A2974 RMK A01 T01881050  RH  019%=      5-min Rain = 0
KDC1 222036Z 19009G16KT 19/M04 A2974 RMK A01 T01871039  RH  021%=      5-min Rain = 0
KDC1 222037Z 18012KT 19/M04 A2974 RMK A01 T01881043  RH  021%=      5-min Rain = 0
KDC1 222038Z 19015G21KT 19/M04 A2974 RMK A01 T01891042  RH  020%=      5-min Rain = 0
KDC1 222039Z 21007KT 19/M05 A2974 RMK A01 T01901047  RH  020%=      5-min Rain = 0
KDC1 222040Z 22009KT 19/M05 A2974 RMK A01 T01921050  RH  019%=      5-min Rain = 0
KDC1 222041Z 22008KT 19/M05 A2974 RMK A01 T01921050  RH  019%=      5-min Rain = 0
KDC1 222042Z 22006KT 19/M05 A2974 RMK A01 T01931050  RH  019%=      5-min Rain = 0
KDC1 222043Z 22008G13KT 19/M05 A2974 RMK A01 T01941051  RH  019%=      5-min Rain = 0
KDC1 222044Z 24011G19KT 19/M05 A2974 RMK A01 T01931052  RH  019%=      5-min Rain = 0
KDC1 222045Z 22015G22KT 19/M05 A2974 RMK A01 T01921050  RH  019%=      5-min Rain = 0
KDC1 222046Z 20012KT 19/M05 A2974 RMK A01 T01911050  RH  019%=      5-min Rain = 0
KDC1 222047Z 20010KT 19/M05 A2974 RMK A01 T01891052  RH  019%=      5-min Rain = 0
KDC1 222048Z 18013G20KT 19/M05 A2973 RMK A01 T01871048  RH  020%=      5-min Rain = 0
KDC1 222049Z 19014KT 19/M05 A2973 RMK A01 T01851048  RH  020%=      5-min Rain = 0
KDC1 222050Z 19011KT 18/M05 A2973 RMK A01 T01831046  RH  021%=      5-min Rain = 0
KDC1 222051Z 19006KT 18/M05 A2973 RMK A01 T01831045  RH  021%=      5-min Rain = 0
KDC1 222052Z 17008KT 19/M04 A2973 RMK A01 T01851044  RH  021%=      5-min Rain = 0
KDC1 222053Z 17009KT 19/M04 A2973 RMK A01 T01871037  RH  022%=      5-min Rain = 0
KDC1 222054Z 18009KT 19/M04 A2973 RMK A01 T01871039  RH  021%=      5-min Rain = 0
KDC1 222055Z 18009KT 19/M04 A2973 RMK A01 T01881039  RH  021%=      5-min Rain = 0
KDC1 222056Z 19010G15KT 19/M04 A2973 RMK A01 T01891042  RH  020%=      5-min Rain = 0
KDC1 222057Z 19010G15KT 19/M05 A2973 RMK A01 T01901045  RH  020%=      5-min Rain = 0
KDC1 222058Z 20012G17KT 19/M05 A2973 RMK A01 T01911050  RH  019%=      5-min Rain = 0
KDC1 222059Z 20009G15KT 19/M05 A2973 RMK A01 T01901052  RH  019%=      5-min Rain = 0
KDC1 222100Z 19008KT 19/M05 A2973 RMK A01 T01901054  RH  019%=      5-min Rain = 0
KDC1 222101Z 18007KT 19/M05 A2973 RMK A01 T01891045  RH  020%=      5-min Rain = 0
KDC1 222102Z 19012KT 19/M04 A2973 RMK A01 T01931039  RH  020%=      5-min Rain = 0
KDC1 222103Z 19010KT 19/M05 A2973 RMK A01 T01921052  RH  019%=      5-min Rain = 0
KDC1 222104Z 20013KT 19/M05 A2973 RMK A01 T01921052  RH  019%=      5-min Rain = 0
KDC1 222105Z 20010KT 19/M06 A2973 RMK A01 T01921055  RH  018%=      5-min Rain = 0
KDC1 222106Z 18007KT 19/M05 A2973 RMK A01 T01931046  RH  019%=      5-min Rain = 0
KDC1 222107Z 18010KT 20/M04 A2973 RMK A01 T01951043  RH  020%=      5-min Rain = 0
KDC1 222108Z 19009KT 20/M05 A2972 RMK A01 T01951047  RH  019%=      5-min Rain = 0
KDC1 222109Z 18010KT 19/M05 A2972 RMK A01 T01921045  RH  020%=      5-min Rain = 0
KDC1 222110Z 17007KT 19/M04 A2972 RMK A01 T01911043  RH  020%=      5-min Rain = 0
KDC1 222111Z 21006KT 19/M04 A2972 RMK A01 T01901040  RH  021%=      5-min Rain = 0
KDC1 222112Z 20009KT 19/M05 A2972 RMK A01 T01891050  RH  019%=      5-min Rain = 0
KDC1 222113Z 21010KT 19/M05 A2972 RMK A01 T01901053  RH  019%=      5-min Rain = 0
KDC1 222114Z 20011G17KT 19/M05 A2972 RMK A01 T01921053  RH  019%=      5-min Rain = 0
KDC1 222115Z 20011G16KT 19/M05 A2972 RMK A01 T01921054  RH  018%=      5-min Rain = 0
KDC1 222116Z 20010G16KT 19/M05 A2972 RMK A01 T01901054  RH  019%=      5-min Rain = 0
KDC1 222117Z 20013G18KT 19/M06 A2972 RMK A01 T01871055  RH  019%=      5-min Rain = 0
KDC1 222118Z 20011KT 19/M05 A2972 RMK A01 T01871054  RH  019%=      5-min Rain = 0
KDC1 222119Z 20007KT 19/M05 A2972 RMK A01 T01871053  RH  019%=      5-min Rain = 0
KDC1 222120Z 19008KT 19/M05 A2972 RMK A01 T01901046  RH  020%=      5-min Rain = 0
KDC1 222121Z 18007KT 19/M05 A2972 RMK A01 T01921046  RH  019%=      5-min Rain = 0
KDC1 222122Z 17010G17KT 20/M03 A2971 RMK A01 T01951032  RH  021%=      5-min Rain = 0
KDC1 222123Z 18011G16KT 20/M03 A2971 RMK A01 T01991032  RH  021%=      5-min Rain = 0
KDC1 222124Z 18009KT 20/M04 A2971 RMK A01 T02001036  RH  020%=      5-min Rain = 0
KDC1 222125Z 17010G17KT 20/M03 A2971 RMK A01 T02011031  RH  021%=      5-min Rain = 0
KDC1 222126Z 18012KT 20/M04 A2971 RMK A01 T02011035  RH  020%=      5-min Rain = 0
KDC1 222127Z 20010KT 20/M05 A2971 RMK A01 T01991049  RH  018%=      5-min Rain = 0
KDC1 222128Z 18010KT 20/M04 A2971 RMK A01 T01981044  RH  019%=      5-min Rain = 0
KDC1 222129Z 17010KT 20/M04 A2971 RMK A01 T01981039  RH  020%=      5-min Rain = 0
KDC1 222130Z 18009KT 20/M04 A2971 RMK A01 T01971041  RH  020%=      5-min Rain = 0
KDC1 222131Z 19009KT 20/M05 A2971 RMK A01 T01971047  RH  019%=      5-min Rain = 0
KDC1 222132Z 20008G13KT 20/M04 A2971 RMK A01 T01971042  RH  019%=      5-min Rain = 0
KDC1 222133Z 21010KT 20/M05 A2971 RMK A01 T01991046  RH  019%=      5-min Rain = 0
KDC1 222134Z 20010G15KT 20/M05 A297 RMK A01 T02011049  RH  018%=      5-min Rain = 0
KDC1 222135Z 22010G15KT 20/M05 A297 RMK A01 T02011048  RH  018%=      5-min Rain = 0
KDC1 222136Z 22011G16KT 20/M05 A297 RMK A01 T02011048  RH  018%=      5-min Rain = 0
KDC1 222137Z 21010G15KT 20/M05 A297 RMK A01 T02001049  RH  018%=      5-min Rain = 0
KDC1 222138Z 22008KT 20/M05 A297 RMK A01 T01991048  RH  018%=      5-min Rain = 0
KDC1 222139Z 23011KT 20/M05 A297 RMK A01 T02011047  RH  018%=      5-min Rain = 0
KDC1 222140Z 22012G18KT 20/M05 A297 RMK A01 T02001049  RH  018%=      5-min Rain = 0
KDC1 222141Z 22012G17KT 20/M05 A297 RMK A01 T01991048  RH  018%=      5-min Rain = 0
KDC1 222142Z 21010G15KT 20/M05 A297 RMK A01 T02001048  RH  018%=      5-min Rain = 0
KDC1 222143Z 22011G16KT 20/M05 A297 RMK A01 T02001047  RH  018%=      5-min Rain = 0
KDC1 222144Z 23012G17KT 20/M05 A2969 RMK A01 T02001049  RH  018%=      5-min Rain = 0
KDC1 222145Z 23011KT 20/M05 A2969 RMK A01 T01991050  RH  018%=      5-min Rain = 0
KDC1 222146Z 22009G14KT 20/M05 A2969 RMK A01 T01981049  RH  018%=      5-min Rain = 0
KDC1 222147Z 22011KT 20/M05 A2969 RMK A01 T01981049  RH  018%=      5-min Rain = 0
KDC1 222148Z 22008KT 20/M05 A2969 RMK A01 T01981051  RH  018%=      5-min Rain = 0
KDC1 222149Z 19007G12KT 20/M05 A2969 RMK A01 T01971050  RH  018%=      5-min Rain = 0
KDC1 222150Z 19007KT 20/M05 A2969 RMK A01 T01971048  RH  019%=      5-min Rain = 0
KDC1 222151Z 17009KT 20/M04 A2969 RMK A01 T01971042  RH  020%=      5-min Rain = 0
KDC1 222152Z 18011KT 20/M04 A2969 RMK A01 T01971039  RH  020%=      5-min Rain = 0
KDC1 222153Z 17010KT 20/M04 A2969 RMK A01 T01951037  RH  020%=      5-min Rain = 0
KDC1 222154Z 17012KT 19/M04 A2969 RMK A01 T01931041  RH  020%=      5-min Rain = 0
KDC1 222155Z 17011KT 19/M04 A2969 RMK A01 T01921039  RH  021%=      5-min Rain = 0
KDC1 222156Z 18012G17KT 19/M04 A2969 RMK A01 T01911042  RH  020%=      5-min Rain = 0
KDC1 222157Z 18010G15KT 19/M04 A2969 RMK A01 T01901040  RH  021%=      5-min Rain = 0
KDC1 222158Z 16011KT 19/M04 A2968 RMK A01 T01901041  RH  021%=      5-min Rain = 0
KDC1 222159Z 16012KT 19/M04 A2968 RMK A01 T01921037  RH  021%=      5-min Rain = 0
KDC1 222200Z 16013KT 19/M04 A2968 RMK A01 T01941035  RH  021%=      5-min Rain = 0
KDC1 222201Z 17012G17KT 19/M04 A2968 RMK A01 T01941039  RH  020%=      5-min Rain = 0
KDC1 222202Z 19008KT 19/M05 A2968 RMK A01 T01941045  RH  019%=      5-min Rain = 0
KDC1 222203Z 19009KT 19/M05 A2968 RMK A01 T01931046  RH  019%=      5-min Rain = 0
KDC1 222204Z 19008KT 19/M05 A2968 RMK A01 T01941048  RH  019%=      5-min Rain = 0
KDC1 222205Z 20006KT 19/M05 A2968 RMK A01 T01941050  RH  019%=      5-min Rain = 0
KDC1 222206Z 18006KT 19/M04 A2967 RMK A01 T01931044  RH  020%=      5-min Rain = 0
KDC1 222207Z 18012KT 19/M03 A2967 RMK A01 T01941034  RH  021%=      5-min Rain = 0
KDC1 222208Z 19009KT 20/M04 A2967 RMK A01 T01971038  RH  020%=      5-min Rain = 0
KDC1 222209Z 20008G13KT 20/M05 A2967 RMK A01 T01961047  RH  019%=      5-min Rain = 0
KDC1 222210Z 18008KT 20/M04 A2967 RMK A01 T01961041  RH  020%=      5-min Rain = 0
KDC1 222211Z 17010KT 20/M04 A2967 RMK A01 T01981035  RH  020%=      5-min Rain = 0
KDC1 222212Z 18013KT 20/M04 A2967 RMK A01 T01981036  RH  020%=      5-min Rain = 0
KDC1 222213Z 17013KT 20/M04 A2967 RMK A01 T01981041  RH  020%=      5-min Rain = 0
KDC1 222214Z 17010KT 20/M03 A2967 RMK A01 T01991032  RH  021%=      5-min Rain = 0
KDC1 222215Z 16011KT 20/M03 A2967 RMK A01 T02001034  RH  020%=      5-min Rain = 0
KDC1 222216Z 17009KT 20/M03 A2967 RMK A01 T02001031  RH  021%=      5-min Rain = 0
KDC1 222217Z 18011KT 20/M04 A2967 RMK A01 T02001040  RH  020%=      5-min Rain = 0
KDC1 222218Z 18011KT 20/M04 A2967 RMK A01 T02001037  RH  020%=      5-min Rain = 0
KDC1 222219Z 19010KT 20/M04 A2967 RMK A01 T01991042  RH  019%=      5-min Rain = 0
KDC1 222220Z 19010KT 20/M05 A2967 RMK A01 T01991048  RH  018%=      5-min Rain = 0
KDC1 222221Z 17009KT 20/M04 A2967 RMK A01 T01981041  RH  020%=      5-min Rain = 0
KDC1 222222Z 18011KT 20/M04 A2967 RMK A01 T01981036  RH  020%=      5-min Rain = 0
KDC1 222223Z 18013KT 20/M04 A2967 RMK A01 T01981038  RH  020%=      5-min Rain = 0
KDC1 222224Z 18012KT 20/M04 A2967 RMK A01 T01971041  RH  020%=      5-min Rain = 0
KDC1 222225Z 16011KT 20/M04 A2967 RMK A01 T01951041  RH  020%=      5-min Rain = 0
KDC1 222226Z 17015G21KT 20/M04 A2966 RMK A01 T01961036  RH  021%=      5-min Rain = 0
KDC1 222227Z 17014KT 20/M04 A2967 RMK A01 T01961036  RH  021%=      5-min Rain = 0
KDC1 222228Z 16015KT 20/M04 A2966 RMK A01 T01961037  RH  020%=      5-min Rain = 0
KDC1 222229Z 18014G19KT 20/M04 A2966 RMK A01 T01961040  RH  020%=      5-min Rain = 0
KDC1 222230Z 19017G22KT 20/M04 A2966 RMK A01 T01961044  RH  019%=      5-min Rain = 0
KDC1 222231Z 19011G17KT 20/M05 A2966 RMK A01 T01951047  RH  019%=      5-min Rain = 0
KDC1 222232Z 19008KT 19/M05 A2966 RMK A01 T01941046  RH  019%=      5-min Rain = 0
KDC1 222233Z 20009KT 19/M05 A2966 RMK A01 T01941047  RH  019%=      5-min Rain = 0
KDC1 222234Z 20007KT 19/M05 A2966 RMK A01 T01941048  RH  019%=      5-min Rain = 0
KDC1 222235Z 20012KT 20/M05 A2966 RMK A01 T01951048  RH  019%=      5-min Rain = 0
KDC1 222236Z 18009KT 20/M05 A2966 RMK A01 T01951047  RH  019%=      5-min Rain = 0
KDC1 222237Z 17012G17KT 20/M04 A2966 RMK A01 T01951036  RH  021%=      5-min Rain = 0
KDC1 222238Z 17013KT 19/M04 A2966 RMK A01 T01941035  RH  021%=      5-min Rain = 0
KDC1 222239Z 18011KT 19/M04 A2966 RMK A01 T01921037  RH  021%=      5-min Rain = 0
KDC1 222240Z 17010KT 19/M04 A2965 RMK A01 T01901038  RH  021%=      5-min Rain = 0
KDC1 222241Z 17010KT 19/M04 A2965 RMK A01 T01891035  RH  022%=      5-min Rain = 0
KDC1 222242Z 17009KT 19/M03 A2965 RMK A01 T01881031  RH  022%=      5-min Rain = 0
KDC1 222243Z 17012KT 19/M04 A2965 RMK A01 T01881036  RH  022%=      5-min Rain = 0
KDC1 222244Z 17010KT 19/M04 A2965 RMK A01 T01881039  RH  021%=      5-min Rain = 0
KDC1 222245Z 18009KT 19/M04 A2965 RMK A01 T01881041  RH  021%=      5-min Rain = 0
KDC1 222246Z 17008KT 19/M04 A2965 RMK A01 T01881039  RH  021%=      5-min Rain = 0
KDC1 222247Z 17007KT 19/M03 A2965 RMK A01 T01881032  RH  022%=      5-min Rain = 0
KDC1 222248Z 17010G15KT 19/M04 A2965 RMK A01 T01871035  RH  022%=      5-min Rain = 0
KDC1 222249Z 18012G20KT 19/M04 A2965 RMK A01 T01871038  RH  021%=      5-min Rain = 0
KDC1 222250Z 18012G17KT 19/M04 A2965 RMK A01 T01871041  RH  021%=      5-min Rain = 0
KDC1 222251Z 19013KT 19/M04 A2965 RMK A01 T01891043  RH  020%=      5-min Rain = 0
KDC1 222252Z 18013KT 19/M05 A2964 RMK A01 T01901045  RH  020%=      5-min Rain = 0
KDC1 222253Z 19012KT 19/M05 A2964 RMK A01 T01911047  RH  020%=      5-min Rain = 0
KDC1 222254Z 19012KT 19/M05 A2964 RMK A01 T01931045  RH  020%=      5-min Rain = 0
KDC1 222255Z 19008KT 19/M04 A2965 RMK A01 T01931042  RH  020%=      5-min Rain = 0
KDC1 222256Z 20008KT 19/M05 A2965 RMK A01 T01941045  RH  019%=      5-min Rain = 0
KDC1 222257Z 20009G15KT 20/M05 A2964 RMK A01 T01951049  RH  019%=      5-min Rain = 0
KDC1 222258Z 19010KT 20/M05 A2964 RMK A01 T01951049  RH  019%=      5-min Rain = 0
KDC1 222259Z 19011KT 20/M05 A2964 RMK A01 T01961046  RH  019%=      5-min Rain = 0
KDC1 222300Z 19010G16KT 20/M05 A2964 RMK A01 T01951046  RH  019%=      5-min Rain = 0
KDC1 222301Z 19011KT 19/M05 A2964 RMK A01 T01941050  RH  019%=      5-min Rain = 0
KDC1 222302Z 20012KT 19/M05 A2964 RMK A01 T01941051  RH  019%=      5-min Rain = 0
KDC1 222303Z 20009KT 19/M05 A2964 RMK A01 T01941051  RH  019%=      5-min Rain = 0
KDC1 222304Z 20008KT 19/M05 A2964 RMK A01 T01941051  RH  019%=      5-min Rain = 0
KDC1 222305Z 19011KT 19/M05 A2964 RMK A01 T01931049  RH  019%=      5-min Rain = 0
KDC1 222306Z 19011G16KT 19/M05 A2964 RMK A01 T01931050  RH  019%=      5-min Rain = 0
KDC1 222307Z 18010G16KT 19/M05 A2964 RMK A01 T01931046  RH  019%=      5-min Rain = 0
KDC1 222308Z 19009KT 19/M04 A2964 RMK A01 T01921042  RH  020%=      5-min Rain = 0
KDC1 222309Z 19013G19KT 19/M04 A2964 RMK A01 T01911039  RH  021%=      5-min Rain = 0
KDC1 222310Z 19016KT 19/M04 A2964 RMK A01 T01911041  RH  021%=      5-min Rain = 0
KDC1 222311Z 19014KT 19/M04 A2964 RMK A01 T01901043  RH  020%=      5-min Rain = 0
KDC1 222312Z 19015G21KT 19/M04 A2964 RMK A01 T01901044  RH  020%=      5-min Rain = 0
KDC1 222313Z 19013KT 19/M05 A2964 RMK A01 T01901045  RH  020%=      5-min Rain = 0
KDC1 222314Z 20014KT 19/M05 A2964 RMK A01 T01911045  RH  020%=      5-min Rain = 0
KDC1 222315Z 19012G18KT 19/M05 A2964 RMK A01 T01911046  RH  020%=      5-min Rain = 0
KDC1 222316Z 19009KT 19/M04 A2964 RMK A01 T01911040  RH  021%=      5-min Rain = 0
KDC1 222317Z 19008G13KT 19/M04 A2964 RMK A01 T01911039  RH  021%=      5-min Rain = 0
KDC1 222318Z 18009G14KT 19/M04 A2964 RMK A01 T01901037  RH  021%=      5-min Rain = 0
KDC1 222319Z 17010G15KT 19/M03 A2964 RMK A01 T01901034  RH  022%=      5-min Rain = 0
KDC1 222320Z 18008G13KT 19/M03 A2964 RMK A01 T01901034  RH  022%=      5-min Rain = 0
KDC1 222321Z 17011KT 19/M03 A2964 RMK A01 T01901033  RH  022%=      5-min Rain = 0
KDC1 222322Z 17010KT 19/M03 A2964 RMK A01 T01891031  RH  022%=      5-min Rain = 0
KDC1 222323Z 18014KT 19/M03 A2964 RMK A01 T01881034  RH  022%=      5-min Rain = 0
KDC1 222324Z 18010KT 19/M04 A2964 RMK A01 T01881035  RH  022%=      5-min Rain = 0
KDC1 222325Z 18010KT 19/M03 A2964 RMK A01 T01881033  RH  022%=      5-min Rain = 0
KDC1 222326Z 17012G17KT 19/M03 A2964 RMK A01 T01881034  RH  022%=      5-min Rain = 0
KDC1 222327Z 18011G18KT 19/M04 A2963 RMK A01 T01881035  RH  022%=      5-min Rain = 0
KDC1 222328Z 18009KT 19/M04 A2963 RMK A01 T01881036  RH  022%=      5-min Rain = 0
KDC1 222329Z 18010KT 19/M03 A2963 RMK A01 T01871033  RH  022%=      5-min Rain = 0
KDC1 222330Z 17009KT 19/M03 A2963 RMK A01 T01871034  RH  022%=      5-min Rain = 0
KDC1 222331Z 17010KT 19/M03 A2963 RMK A01 T01861030  RH  023%=      5-min Rain = 0
KDC1 222332Z 17010KT 19/M03 A2963 RMK A01 T01851027  RH  024%=      5-min Rain = 0
KDC1 222333Z 17012KT 18/M03 A2963 RMK A01 T01841027  RH  024%=      5-min Rain = 0
KDC1 222334Z 18010KT 18/M03 A2963 RMK A01 T01841028  RH  024%=      5-min Rain = 0
KDC1 222335Z 18009KT 18/M03 A2963 RMK A01 T01841029  RH  023%=      5-min Rain = 0
KDC1 222336Z 17014KT 18/M03 A2963 RMK A01 T01841030  RH  023%=      5-min Rain = 0
KDC1 222337Z 16016KT 18/M03 A2963 RMK A01 T01841030  RH  023%=      5-min Rain = 0
KDC1 222338Z 16016KT 18/M03 A2963 RMK A01 T01841030  RH  023%=      5-min Rain = 0
KDC1 222339Z 16016KT 18/M03 A2963 RMK A01 T01831028  RH  024%=      5-min Rain = 0
KDC1 222340Z 15015KT 18/M02 A2963 RMK A01 T01821023  RH  025%=      5-min Rain = 0
KDC1 222341Z 16016KT 18/M02 A2963 RMK A01 T01801019  RH  026%=      5-min Rain = 0
KDC1 222342Z 15015KT 18/M02 A2962 RMK A01 T01781018  RH  026%=      5-min Rain = 0
KDC1 222343Z 16013KT 18/M02 A2962 RMK A01 T01771016  RH  027%=      5-min Rain = 0
KDC1 222344Z 16017KT 18/M02 A2962 RMK A01 T01761018  RH  027%=      5-min Rain = 0
KDC1 222345Z 16015KT 18/M02 A2962 RMK A01 T01771020  RH  026%=      5-min Rain = 0
KDC1 222346Z 17015KT 18/M02 A2962 RMK A01 T01771020  RH  026%=      5-min Rain = 0
KDC1 222347Z 16014KT 18/M02 A2962 RMK A01 T01771020  RH  026%=      5-min Rain = 0
KDC1 222348Z 16013KT 18/M02 A2962 RMK A01 T01771019  RH  026%=      5-min Rain = 0
KDC1 222349Z 15013KT 18/M02 A2962 RMK A01 T01761021  RH  026%=      5-min Rain = 0
KDC1 222350Z 15013KT 18/M02 A2962 RMK A01 T01761020  RH  026%=      5-min Rain = 0
KDC1 222351Z 16016KT 18/M02 A2962 RMK A01 T01751022  RH  026%=      5-min Rain = 0
KDC1 222352Z 16013KT 18/M02 A2962 RMK A01 T01761022  RH  026%=      5-min Rain = 0
KDC1 222353Z 16016KT 18/M02 A2962 RMK A01 T01761020  RH  026%=      5-min Rain = 0
KDC1 222354Z 16015KT 18/M02 A2962 RMK A01 T01761021  RH  026%=      5-min Rain = 0
KDC1 222355Z 15012G17KT 18/M02 A2962 RMK A01 T01761020  RH  026%=      5-min Rain = 0
KDC1 222356Z 15015G21KT 18/M02 A2962 RMK A01 T01751020  RH  026%=      5-min Rain = 0
KDC1 222357Z 15015KT 18/M02 A2962 RMK A01 T01751020  RH  026%=      5-min Rain = 0
KDC1 222358Z 15014KT 18/M02 A2962 RMK A01 T01751020  RH  026%=      5-min Rain = 0
KDC1 222359Z 16013KT 18/M02 A2962 RMK A01 T01751019  RH  027%=      5-min Rain = 0
KDC1 230000Z 16012KT 18/M02 A2961 RMK A01 T01751019  RH  027%=      5-min Rain = 0
KDC1 230001Z 16011KT 18/M02 A2961 RMK A01 T01751019  RH  027%=      5-min Rain = 0
KDC1 230002Z 15011KT 17/M02 A2961 RMK A01 T01741018  RH  027%=      5-min Rain = 0
KDC1 230003Z 15011KT 17/M02 A2961 RMK A01 T01741017  RH  027%=      5-min Rain = 0
KDC1 230004Z 15011KT 17/M02 A2961 RMK A01 T01731016  RH  028%=      5-min Rain = 0
KDC1 230005Z 15011KT 17/M02 A2961 RMK A01 T01721018  RH  027%=      5-min Rain = 0
KDC1 230006Z 15012KT 17/M02 A2961 RMK A01 T01721018  RH  027%=      5-min Rain = 0
KDC1 230007Z 15012KT 17/M02 A2961 RMK A01 T01711016  RH  028%=      5-min Rain = 0
KDC1 230008Z 15011KT 17/M02 A2961 RMK A01 T01701015  RH  028%=      5-min Rain = 0
KDC1 230009Z 15011KT 17/M02 A2961 RMK A01 T01691016  RH  028%=      5-min Rain = 0
KDC1 230010Z 15010KT 17/M02 A2961 RMK A01 T01691016  RH  028%=      5-min Rain = 0
KDC1 230011Z 15010KT 17/M02 A2961 RMK A01 T01681015  RH  029%=      5-min Rain = 0
KDC1 230012Z 15011KT 17/M02 A2961 RMK A01 T01671015  RH  029%=      5-min Rain = 0
KDC1 230013Z 15010KT 17/M01 A2961 RMK A01 T01661014  RH  029%=      5-min Rain = 0
KDC1 230014Z 15010KT 16/M02 A2961 RMK A01 T01641016  RH  029%=      5-min Rain = 0
KDC1 230015Z 16009KT 17/M02 A2961 RMK A01 T01651016  RH  029%=      5-min Rain = 0
KDC1 230016Z 15007KT 17/M02 A2961 RMK A01 T01651015  RH  029%=      5-min Rain = 0
KDC1 230017Z 16008KT 16/M01 A2961 RMK A01 T01641014  RH  030%=      5-min Rain = 0
KDC1 230018Z 15009KT 16/M01 A2961 RMK A01 T01631013  RH  030%=      5-min Rain = 0
KDC1 230019Z 14009KT 16/M01 A2961 RMK A01 T01621010  RH  031%=      5-min Rain = 0
KDC1 230020Z 15009KT 16/M01 A2961 RMK A01 T01601009  RH  032%=      5-min Rain = 0
KDC1 230021Z 15009KT 16/M01 A2961 RMK A01 T01581008  RH  032%=      5-min Rain = 0
KDC1 230022Z 14009KT 16/M01 A296 RMK A01 T01571008  RH  032%=      5-min Rain = 0
KDC1 230023Z 15008KT 16/M01 A296 RMK A01 T01571009  RH  032%=      5-min Rain = 0
KDC1 230024Z 15008KT 16/M01 A2961 RMK A01 T01561008  RH  032%=      5-min Rain = 0
KDC1 230025Z 15008KT 16/M01 A2961 RMK A01 T01551009  RH  032%=      5-min Rain = 0
KDC1 230026Z 15008KT 16/M01 A2961 RMK A01 T01561012  RH  032%=      5-min Rain = 0
KDC1 230027Z 15008KT 16/M01 A2961 RMK A01 T01571012  RH  031%=      5-min Rain = 0
KDC1 230028Z 15007KT 16/M01 A2961 RMK A01 T01571013  RH  031%=      5-min Rain = 0
KDC1 230029Z 15008KT 16/M01 A2961 RMK A01 T01581013  RH  031%=      5-min Rain = 0
KDC1 230030Z 16006KT 16/M01 A2961 RMK A01 T01591013  RH  031%=      5-min Rain = 0
KDC1 230031Z 16007KT 16/M01 A2961 RMK A01 T01591012  RH  031%=      5-min Rain = 0
KDC1 230032Z 15007KT 16/M01 A2961 RMK A01 T01591013  RH  031%=      5-min Rain = 0
KDC1 230033Z 16006KT 16/M01 A2961 RMK A01 T01591011  RH  031%=      5-min Rain = 0
KDC1 230034Z 16006KT 16/M01 A2961 RMK A01 T01581009  RH  032%=      5-min Rain = 0
KDC1 230035Z 16007KT 16/M01 A2961 RMK A01 T01571009  RH  032%=      5-min Rain = 0
KDC1 230036Z 16006KT 16/M01 A2961 RMK A01 T01561008  RH  032%=      5-min Rain = 0
KDC1 230037Z 15007KT 16/M01 A2961 RMK A01 T01551009  RH  033%=      5-min Rain = 0
KDC1 230038Z 15006KT 16/M01 A2961 RMK A01 T01551008  RH  033%=      5-min Rain = 0
KDC1 230039Z 16007KT 15/M01 A2961 RMK A01 T01541009  RH  033%=      5-min Rain = 0
KDC1 230040Z 17005KT 16/M01 A2961 RMK A01 T01551011  RH  032%=      5-min Rain = 0
KDC1 230041Z 18004KT 16/M01 A2961 RMK A01 T01551010  RH  032%=      5-min Rain = 0
KDC1 230042Z 19004KT 16/M01 A2961 RMK A01 T01551013  RH  032%=      5-min Rain = 0
KDC1 230043Z 19005KT 16/M02 A2961 RMK A01 T01561016  RH  031%=      5-min Rain = 0
KDC1 230044Z 18004KT 16/M02 A2961 RMK A01 T01581017  RH  030%=      5-min Rain = 0
KDC1 230045Z 20003KT 16/M02 A2961 RMK A01 T01591016  RH  030%=      5-min Rain = 0
KDC1 230046Z 20004KT 16/M02 A2962 RMK A01 T01601017  RH  030%=      5-min Rain = 0
KDC1 230047Z 20004KT 16/M02 A2962 RMK A01 T01591018  RH  030%=      5-min Rain = 0
KDC1 230048Z 18006KT 16/M02 A2961 RMK A01 T01601019  RH  029%=      5-min Rain = 0
KDC1 230049Z 17006KT 16/M02 A2961 RMK A01 T01611017  RH  030%=      5-min Rain = 0
KDC1 230050Z 17007KT 16/M01 A2961 RMK A01 T01591011  RH  031%=      5-min Rain = 0
KDC1 230051Z 18008KT 16/M01 A2962 RMK A01 T01561010  RH  032%=      5-min Rain = 0
KDC1 230052Z 19006KT 15/M01 A2962 RMK A01 T01541011  RH  032%=      5-min Rain = 0
KDC1 230053Z 20012G18KT 16/M03 A2962 RMK A01 T01551025  RH  029%=      5-min Rain = 0
KDC1 230054Z 23014KT 17/M03 A2963 RMK A01 T01671034  RH  025%=      5-min Rain = 0
KDC1 230055Z 22008KT 17/M02 A2963 RMK A01 T01711021  RH  027%=      5-min Rain = 0
KDC1 230056Z 22005KT 17/M02 A2963 RMK A01 T01691022  RH  027%=      5-min Rain = 0
KDC1 230057Z 25009KT 17/M03 A2963 RMK A01 T01691028  RH  026%=      5-min Rain = 0
KDC1 230058Z 26009KT 17/M03 A2963 RMK A01 T01701034  RH  025%=      5-min Rain = 0
KDC1 230059Z 27012KT 17/M04 A2963 RMK A01 T01691040  RH  024%=      5-min Rain = 0
KDC1 230100Z 26014KT 17/M06 A2963 RMK A01 T01691056  RH  021%=      5-min Rain = 0
KDC1 230101Z 26012KT 17/M06 A2963 RMK A01 T01691063  RH  020%=      5-min Rain = 0
KDC1 230102Z 26015KT 17/M07 A2963 RMK A01 T01701068  RH  019%=      5-min Rain = 0
KDC1 230103Z 27022G30KT 17/M07 A2963 RMK A01 T01721070  RH  018%=      5-min Rain = 0
KDC1 230104Z 28025KT 17/M07 A2963 RMK A01 T01721066  RH  019%=      5-min Rain = 0
KDC1 230105Z 28024KT 17/M06 A2963 RMK A01 T01701060  RH  020%=      5-min Rain = 0
KDC1 230106Z 27029KT 17/M05 A2963 RMK A01 T01661052  RH  022%=      5-min Rain = 0
KDC1 230107Z 27026G32KT 16/M05 A2963 RMK A01 T01611045  RH  024%=      5-min Rain = 0
KDC1 230108Z 27023KT 16/M04 A2964 RMK A01 T01571042  RH  025%=      5-min Rain = 0
KDC1 230109Z 27026KT 15/M04 A2964 RMK A01 T01541040  RH  026%=      5-min Rain = 0
KDC1 230110Z 27027KT 15/M04 A2964 RMK A01 T01531038  RH  027%=      5-min Rain = 0
KDC1 230111Z 27025KT 15/M04 A2964 RMK A01 T01511037  RH  027%=      5-min Rain = 0
KDC1 230112Z 27027KT 15/M04 A2964 RMK A01 T01501035  RH  028%=      5-min Rain = 0
KDC1 230113Z 27028KT 15/M03 A2964 RMK A01 T01471032  RH  029%=      5-min Rain = 0
KDC1 230114Z 28029KT 15/M03 A2964 RMK A01 T01451030  RH  030%=      5-min Rain = 0
KDC1 230115Z 28025KT 14/M03 A2964 RMK A01 T01431028  RH  031%=      5-min Rain = 0
KDC1 230116Z 27026KT 14/M03 A2964 RMK A01 T01411026  RH  031%=      5-min Rain = 0
KDC1 230117Z 27025KT 14/M03 A2964 RMK A01 T01401025  RH  032%=      5-min Rain = 0
KDC1 230118Z 27026KT 14/M02 A2965 RMK A01 T01381024  RH  032%=      5-min Rain = 0
KDC1 230119Z 27024G29KT 14/M02 A2965 RMK A01 T01371022  RH  033%=      5-min Rain = 0
KDC1 230120Z 27023KT 14/M02 A2965 RMK A01 T01351021  RH  034%=      5-min Rain = 0
KDC1 230121Z 27023G28KT 13/M02 A2965 RMK A01 T01341020  RH  035%=      5-min Rain = 0
KDC1 230122Z 27025KT 13/M02 A2965 RMK A01 T01321018  RH  035%=      5-min Rain = 0
KDC1 230123Z 27025KT 13/M02 A2965 RMK A01 T01311017  RH  036%=      5-min Rain = 0
KDC1 230124Z 28023KT 13/M02 A2966 RMK A01 T01291016  RH  037%=      5-min Rain = 0
KDC1 230125Z 28024KT 13/M02 A2966 RMK A01 T01281016  RH  037%=      5-min Rain = 0
KDC1 230126Z 29020KT 13/M02 A2966 RMK A01 T01281016  RH  037%=      5-min Rain = 0
KDC1 230127Z 28022G27KT 13/M02 A2966 RMK A01 T01271016  RH  037%=      5-min Rain = 0
KDC1 230128Z 29022KT 13/M01 A2966 RMK A01 T01261014  RH  038%=      5-min Rain = 0
KDC1 230129Z 29023KT 13/M01 A2966 RMK A01 T01251013  RH  038%=      5-min Rain = 0
KDC1 230130Z 29022KT 12/M01 A2966 RMK A01 T01241012  RH  039%=      5-min Rain = 0
KDC1 230131Z 29020KT 12/M01 A2967 RMK A01 T01231011  RH  039%=      5-min Rain = 0
KDC1 230132Z 29020KT 12/M01 A2967 RMK A01 T01211011  RH  040%=      5-min Rain = 0
KDC1 230133Z 29023KT 12/M01 A2967 RMK A01 T01201010  RH  041%=      5-min Rain = 0
KDC1 230134Z 28022KT 12/M01 A2967 RMK A01 T01181009  RH  041%=      5-min Rain = 0
KDC1 230135Z 28020KT 12/M01 A2968 RMK A01 T01181008  RH  042%=      5-min Rain = 0
KDC1 230136Z 28018KT 12/M01 A2968 RMK A01 T01171008  RH  042%=      5-min Rain = 0
KDC1 230137Z 28017KT 12/M01 A2968 RMK A01 T01161008  RH  042%=      5-min Rain = 0
KDC1 230138Z 28023G32KT 12/M01 A2968 RMK A01 T01161008  RH  042%=      5-min Rain = 0
KDC1 230139Z 27025KT 11/M01 A2968 RMK A01 T01131006  RH  044%=      5-min Rain = 0
KDC1 230140Z 28025KT 11/M01 A2968 RMK A01 T01111006  RH  045%=      5-min Rain = 0
KDC1 230141Z 28025G30KT 11/M01 A2968 RMK A01 T01101005  RH  045%=      5-min Rain = 0
KDC1 230142Z 28027G35KT 11/M01 A2968 RMK A01 T01081005  RH  045%=      5-min Rain = 0
KDC1 230143Z 28030KT 11/M01 A2968 RMK A01 T01071005  RH  046%=      5-min Rain = 0
KDC1 230144Z 28028KT 11/M01 A2968 RMK A01 T01061005  RH  046%=      5-min Rain = 0
KDC1 230145Z 28024G29KT 11/M01 A2969 RMK A01 T01051005  RH  047%=      5-min Rain = 0
KDC1 230146Z 28026G35KT 10/M01 A2969 RMK A01 T01041005  RH  047%=      5-min Rain = 0
KDC1 230147Z 28029G34KT 10/M01 A2969 RMK A01 T01041005  RH  047%=      5-min Rain = 0
KDC1 230148Z 28030KT 10/M01 A2969 RMK A01 T01031005  RH  047%=      5-min Rain = 0
KDC1 230149Z 28030KT 10/M00 A2969 RMK A01 T01021004  RH  048%=      5-min Rain = 0
KDC1 230150Z 28024G31KT 10/M00 A297 RMK A01 T01011004  RH  048%=      5-min Rain = 0
KDC1 230151Z 28030KT 10/M00 A297 RMK A01 T01001004  RH  048%=      5-min Rain = 0
KDC1 230152Z 28028KT 10/M00 A297 RMK A01 T00991004  RH  048%=      5-min Rain = 0
KDC1 230153Z 28032G39KT 10/M00 A297 RMK A01 T00991004  RH  049%=      5-min Rain = 0
KDC1 230154Z 28034G40KT 10/M00 A297 RMK A01 T00971004  RH  049%=      5-min Rain = 0
KDC1 230155Z 28035G41KT 10/M01 A297 RMK A01 T00951005  RH  050%=      5-min Rain = 0
KDC1 230156Z 28030G36KT 09/M00 A297 RMK A01 T00941004  RH  050%=      5-min Rain = 0
KDC1 230157Z 28028G33KT 09/M01 A297 RMK A01 T00931005  RH  051%=      5-min Rain = 0
KDC1 230158Z 28035KT 09/M01 A297 RMK A01 T00921005  RH  051%=      5-min Rain = 0
KDC1 230159Z 28029KT 09/M01 A297 RMK A01 T00911006  RH  051%=      5-min Rain = 0
KDC1 230200Z 28032G37KT 09/M01 A297 RMK A01 T00901006  RH  051%=      5-min Rain = 0
KDC1 230201Z 28029KT 09/M01 A297 RMK A01 T00901006  RH  051%=      5-min Rain = 0
KDC1 230202Z 27034G40KT 09/M01 A2971 RMK A01 T00891007  RH  051%=      5-min Rain = 0
KDC1 230203Z 28033G40KT 09/M01 A2971 RMK A01 T00891007  RH  051%=      5-min Rain = 0
KDC1 230204Z 28033G38KT 09/M01 A2971 RMK A01 T00881007  RH  051%=      5-min Rain = 0
KDC1 230205Z 28038G44KT 09/M01 A2971 RMK A01 T00881007  RH  051%=      5-min Rain = 0
KDC1 230206Z 28035G43KT 09/M01 A2971 RMK A01 T00871008  RH  051%=      5-min Rain = 0
KDC1 230207Z 28037KT 09/M01 A2971 RMK A01 T00861008  RH  052%=      5-min Rain = 0
KDC1 230208Z 27030G37KT 09/M01 A2972 RMK A01 T00861008  RH  052%=      5-min Rain = 0
KDC1 230209Z 28039KT 09/M01 A2971 RMK A01 T00851008  RH  052%=      5-min Rain = 0
KDC1 230210Z 28038G44KT 08/M01 A2971 RMK A01 T00841009  RH  052%=      5-min Rain = 0
KDC1 230211Z 28036G41KT 08/M01 A2971 RMK A01 T00831009  RH  053%=      5-min Rain = 0
KDC1 230212Z 27038G43KT 08/M01 A2971 RMK A01 T00821009  RH  053%=      5-min Rain = 0
KDC1 230213Z 27032G37KT 08/M01 A2972 RMK A01 T00821009  RH  053%=      5-min Rain = 0
KDC1 230214Z 27032KT 08/M01 A2973 RMK A01 T00811009  RH  053%=      5-min Rain = 0
KDC1 230215Z 27038G45KT 08/M01 A2972 RMK A01 T00811009  RH  053%=      5-min Rain = 0
KDC1 230216Z 27037G44KT 08/M01 A2972 RMK A01 T00811009  RH  053%=      5-min Rain = 0
KDC1 230217Z 28033KT 08/M01 A2973 RMK A01 T00811009  RH  053%=      5-min Rain = 0
KDC1 230218Z 28035G41KT 08/M01 A2973 RMK A01 T00801009  RH  053%=      5-min Rain = 0
KDC1 230219Z 28032G39KT 08/M01 A2973 RMK A01 T00801009  RH  053%=      5-min Rain = 0
KDC1 230220Z 28034KT 08/M01 A2973 RMK A01 T00791010  RH  054%=      5-min Rain = 0
KDC1 230221Z 27032G37KT 08/M01 A2974 RMK A01 T00791009  RH  054%=      5-min Rain = 0
KDC1 230222Z 28033G39KT 08/M01 A2974 RMK A01 T00791010  RH  054%=      5-min Rain = 0
KDC1 230223Z 28033G38KT 08/M01 A2974 RMK A01 T00791009  RH  054%=      5-min Rain = 0
KDC1 230224Z 28031G38KT 08/M01 A2974 RMK A01 T00781010  RH  054%=      5-min Rain = 0
KDC1 230225Z 28035G42KT 08/M01 A2974 RMK A01 T00781010  RH  054%=      5-min Rain = 0
KDC1 230226Z 28037G43KT 08/M01 A2974 RMK A01 T00781011  RH  054%=      5-min Rain = 0
KDC1 230227Z 28039G44KT 08/M01 A2974 RMK A01 T00771011  RH  053%=      5-min Rain = 0
KDC1 230228Z 28038G44KT 08/M01 A2974 RMK A01 T00761013  RH  053%=      5-min Rain = 0
KDC1 230229Z 28039G45KT 07/M01 A2974 RMK A01 T00741014  RH  053%=      5-min Rain = 0
KDC1 230230Z 28033G39KT 07/M01 A2975 RMK A01 T00731014  RH  054%=      5-min Rain = 0
KDC1 230231Z 28032KT 07/M01 A2975 RMK A01 T00731014  RH  054%=      5-min Rain = 0
KDC1 230232Z 28030KT 07/M02 A2976 RMK A01 T00731015  RH  054%=      5-min Rain = 0
KDC1 230233Z 28030G35KT 07/M02 A2976 RMK A01 T00721015  RH  054%=      5-min Rain = 0
KDC1 230234Z 27031KT 07/M02 A2976 RMK A01 T00721015  RH  054%=      5-min Rain = 0
KDC1 230235Z 27030G36KT 07/M02 A2976 RMK A01 T00711016  RH  054%=      5-min Rain = 0
KDC1 230236Z 28032KT 07/M02 A2976 RMK A01 T00711016  RH  054%=      5-min Rain = 0
KDC1 230237Z 28027G33KT 07/M02 A2976 RMK A01 T00701016  RH  054%=      5-min Rain = 0
KDC1 230238Z 28033G44KT 07/M02 A2976 RMK A01 T00701016  RH  054%=      5-min Rain = 0
KDC1 230239Z 28030KT 07/M02 A2976 RMK A01 T00701017  RH  054%=      5-min Rain = 0
KDC1 230240Z 28029KT 07/M02 A2977 RMK A01 T00701017  RH  054%=      5-min Rain = 0
KDC1 230241Z 28028KT 07/M02 A2977 RMK A01 T00701017  RH  054%=      5-min Rain = 0
KDC1 230242Z 28028G33KT 07/M02 A2978 RMK A01 T00691017  RH  054%=      5-min Rain = 0
KDC1 230243Z 28026KT 07/M02 A2979 RMK A01 T00691017  RH  054%=      5-min Rain = 0
KDC1 230244Z 28028KT 07/M02 A2979 RMK A01 T00691017  RH  054%=      5-min Rain = 0
KDC1 230245Z 27024G29KT 07/M02 A2979 RMK A01 T00691017  RH  054%=      5-min Rain = 0
KDC1 230246Z 28026G32KT 07/M02 A298 RMK A01 T00691017  RH  054%=      5-min Rain = 0
KDC1 230247Z 28021KT 07/M02 A2981 RMK A01 T00691017  RH  054%=      5-min Rain = 0
KDC1 230248Z 28017G25KT 07/M02 A2981 RMK A01 T00691017  RH  054%=      5-min Rain = 0
KDC1 230249Z 28013G18KT 07/M02 A2982 RMK A01 T00691017  RH  054%=      5-min Rain = 0
KDC1 230250Z 29010KT 07/M02 A2982 RMK A01 T00691017  RH  054%=      5-min Rain = 0
KDC1 230251Z 29005KT 07/M02 A2982 RMK A01 T00691017  RH  054%=      5-min Rain = 0
KDC1 230252Z 25002KT 07/M02 A2983 RMK A01 T00691017  RH  054%=      5-min Rain = 0
KDC1 230253Z 12006KT 07/M02 A2983 RMK A01 T00691018  RH  054%=      5-min Rain = 0
KDC1 230254Z 09007KT 07/M02 A2983 RMK A01 T00691017  RH  054%=      5-min Rain = 0
KDC1 230255Z 07007G12KT 07/M02 A2983 RMK A01 T00691017  RH  054%=      5-min Rain = 0
KDC1 230256Z 13006G11KT 07/M02 A2984 RMK A01 T00701017  RH  054%=      5-min Rain = 0
KDC1 230257Z 18006KT 07/M02 A2984 RMK A01 T00701018  RH  054%=      5-min Rain = 0
KDC1 230258Z 20004KT 07/M02 A2984 RMK A01 T00701017  RH  054%=      5-min Rain = 0
KDC1 230259Z 28007G13KT 07/M02 A2985 RMK A01 T00691018  RH  054%=      5-min Rain = 0
KDC1 230300Z 25005G10KT 07/M02 A2985 RMK A01 T00691018  RH  054%=      5-min Rain = 0
KDC1 230301Z 27014KT 07/M02 A2986 RMK A01 T00691018  RH  054%=      5-min Rain = 0
KDC1 230302Z 28009KT 07/M02 A2986 RMK A01 T00691018  RH  054%=      5-min Rain = 0
KDC1 230303Z 25006G12KT 07/M02 A2986 RMK A01 T00691018  RH  054%=      5-min Rain = 0
KDC1 230304Z 29010G16KT 07/M02 A2987 RMK A01 T00691017  RH  054%=      5-min Rain = 0
KDC1 230305Z 28012KT 07/M02 A2987 RMK A01 T00691018  RH  054%=      5-min Rain = 0
KDC1 230306Z 27015G20KT 07/M02 A2987 RMK A01 T00691017  RH  054%=      5-min Rain = 0
KDC1 230307Z 28008G18KT 07/M02 A2988 RMK A01 T00691017  RH  054%=      5-min Rain = 0
KDC1 230308Z 26003G10KT 07/M02 A2988 RMK A01 T00691017  RH  054%=      5-min Rain = 0
KDC1 230309Z 33005G11KT 07/M02 A2988 RMK A01 T00701017  RH  054%=      5-min Rain = 0
KDC1 230310Z 09004KT 07/M02 A2988 RMK A01 T00701018  RH  054%=      5-min Rain = 0
KDC1 230311Z 14008KT 07/M02 A2988 RMK A01 T00701017  RH  054%=      5-min Rain = 0
KDC1 230312Z 19007KT 07/M02 A2988 RMK A01 T00701017  RH  054%=      5-min Rain = 0
KDC1 230313Z 25004KT 07/M02 A2988 RMK A01 T00701017  RH  054%=      5-min Rain = 0
KDC1 230314Z 14002KT 07/M02 A2988 RMK A01 T00701017  RH  054%=      5-min Rain = 0
KDC1 230315Z 08004KT 07/M02 A2988 RMK A01 T00701018  RH  054%=      5-min Rain = 0
KDC1 230316Z 31010G19KT 07/M02 A2989 RMK A01 T00701017  RH  054%=      5-min Rain = 0
KDC1 230317Z 31012G17KT 07/M02 A2988 RMK A01 T00701017  RH  054%=      5-min Rain = 0
KDC1 230318Z 33018G24KT 07/M02 A2988 RMK A01 T00701017  RH  054%=      5-min Rain = 0
KDC1 230319Z 01013G20KT 07/M02 A2988 RMK A01 T00701018  RH  054%=      5-min Rain = 0
KDC1 230320Z 01011G17KT 07/M02 A2988 RMK A01 T00701018  RH  054%=      5-min Rain = 0
KDC1 230321Z 28004KT 07/M02 A2988 RMK A01 T00701017  RH  054%=      5-min Rain = 0
KDC1 230322Z 36006KT 07/M02 A2988 RMK A01 T00701018  RH  054%=      5-min Rain = 0
KDC1 230323Z 04007KT 07/M02 A2989 RMK A01 T00701018  RH  053%=      5-min Rain = 0
KDC1 230324Z 03005KT 07/M02 A2989 RMK A01 T00701018  RH  053%=      5-min Rain = 0
KDC1 230325Z 01004KT 07/M02 A2989 RMK A01 T00711018  RH  053%=      5-min Rain = 0
KDC1 230326Z 08002KT 07/M02 A2989 RMK A01 T00711018  RH  053%=      5-min Rain = 0
KDC1 230327Z 35004KT 07/M02 A2989 RMK A01 T00711018  RH  053%=      5-min Rain = 0
KDC1 230328Z 33006KT 07/M02 A299 RMK A01 T00711018  RH  053%=      5-min Rain = 0
KDC1 230329Z 32008KT 07/M02 A299 RMK A01 T00711018  RH  053%=      5-min Rain = 0
KDC1 230330Z 29006KT 07/M02 A299 RMK A01 T00701017  RH  054%=      5-min Rain = 0
KDC1 230331Z 33011KT 07/M02 A299 RMK A01 T00691017  RH  054%=      5-min Rain = 0
KDC1 230332Z 31014G21KT 07/M02 A299 RMK A01 T00691018  RH  054%=      5-min Rain = 0
KDC1 230333Z 29014G19KT 07/M02 A299 RMK A01 T00681017  RH  054%=      5-min Rain = 0
KDC1 230334Z 28014KT 07/M02 A299 RMK A01 T00681017  RH  055%=      5-min Rain = 0
KDC1 230335Z 29014KT 07/M02 A299 RMK A01 T00671018  RH  055%=      5-min Rain = 0
KDC1 230336Z 29012KT 07/M02 A299 RMK A01 T00671018  RH  055%=      5-min Rain = 0
KDC1 230337Z 29016KT 07/M02 A299 RMK A01 T00671017  RH  055%=      5-min Rain = 0
KDC1 230338Z 30010KT 07/M02 A299 RMK A01 T00671018  RH  055%=      5-min Rain = 0
KDC1 230339Z 30009KT 07/M02 A299 RMK A01 T00671018  RH  055%=      5-min Rain = 0
KDC1 230340Z 28009KT 07/M02 A299 RMK A01 T00661018  RH  055%=      5-min Rain = 0
KDC1 230341Z 24009KT 07/M02 A299 RMK A01 T00661018  RH  055%=      5-min Rain = 0
KDC1 230342Z 25008KT 07/M02 A299 RMK A01 T00661018  RH  055%=      5-min Rain = 0
KDC1 230343Z 26011KT 07/M02 A299 RMK A01 T00661018  RH  055%=      5-min Rain = 0
KDC1 230344Z 25015KT 07/M02 A2991 RMK A01 T00651018  RH  055%=      5-min Rain = 0
KDC1 230345Z 25016G26KT 06/M02 A2991 RMK A01 T00641017  RH  056%=      5-min Rain = 0
KDC1 230346Z 25013KT 06/M02 A2991 RMK A01 T00641018  RH  056%=      5-min Rain = 0
KDC1 230347Z 25013KT 06/M02 A2991 RMK A01 T00641018  RH  056%=      5-min Rain = 0
KDC1 230348Z 25013KT 06/M02 A2991 RMK A01 T00631018  RH  056%=      5-min Rain = 0
KDC1 230349Z 25013KT 06/M02 A2991 RMK A01 T00631017  RH  057%=      5-min Rain = 0
KDC1 230350Z 24014KT 06/M02 A2991 RMK A01 T00611016  RH  057%=      5-min Rain = 0
KDC1 230351Z 26013G20KT 06/M02 A2991 RMK A01 T00601017  RH  058%=      5-min Rain = 0
KDC1 230352Z 26020G26KT 06/M02 A299 RMK A01 T00601016  RH  058%=      5-min Rain = 0
KDC1 230353Z 26021KT 06/M02 A299 RMK A01 T00591016  RH  058%=      5-min Rain = 0
KDC1 230354Z 26022KT 06/M02 A299 RMK A01 T00581016  RH  059%=      5-min Rain = 0
KDC1 230355Z 27022KT 06/M02 A2989 RMK A01 T00571016  RH  059%=      5-min Rain = 0
KDC1 230356Z 27024G30KT 06/M02 A2989 RMK A01 T00571016  RH  059%=      5-min Rain = 0
KDC1 230357Z 27022KT 06/M02 A2989 RMK A01 T00571015  RH  060%=      5-min Rain = 0
KDC1 230358Z 26020G27KT 06/M02 A2989 RMK A01 T00571015  RH  060%=      5-min Rain = 0
KDC1 230359Z 27026G31KT 06/M02 A2989 RMK A01 T00561015  RH  060%=      5-min Rain = 0
KDC1 230400Z 26021G26KT 06/M02 A2989 RMK A01 T00551015  RH  061%=      5-min Rain = 0
KDC1 230401Z 27024KT 05/M02 A2989 RMK A01 T00541015  RH  061%=      5-min Rain = 0
KDC1 230402Z 27024KT 05/M02 A2989 RMK A01 T00541015  RH  061%=      5-min Rain = 0
KDC1 230403Z 25021KT 05/M01 A2989 RMK A01 T00531014  RH  062%=      5-min Rain = 0
KDC1 230404Z 25022KT 05/M01 A299 RMK A01 T00531014  RH  062%=      5-min Rain = 0
KDC1 230405Z 25021G26KT 05/M01 A299 RMK A01 T00521014  RH  063%=      5-min Rain = 0
KDC1 230406Z 25021KT 05/M01 A2991 RMK A01 T00511014  RH  063%=      5-min Rain = 0
KDC1 230407Z 26019KT 05/M01 A2991 RMK A01 T00511013  RH  063%=      5-min Rain = 0
KDC1 230408Z 25016KT 05/M01 A2991 RMK A01 T00511014  RH  063%=      5-min Rain = 0
KDC1 230409Z 24015KT 05/M01 A2991 RMK A01 T00511013  RH  063%=      5-min Rain = 0
KDC1 230410Z 25016KT 05/M01 A2991 RMK A01 T00511013  RH  063%=      5-min Rain = 0
KDC1 230411Z 24013G19KT 05/M01 A2991 RMK A01 T00511013  RH  063%=      5-min Rain = 0
KDC1 230412Z 25015KT 05/M01 A2991 RMK A01 T00501014  RH  063%=      5-min Rain = 0
KDC1 230413Z 26018KT 05/M01 A2992 RMK A01 T00501014  RH  063%=      5-min Rain = 0
KDC1 230414Z 26017KT 05/M01 A2992 RMK A01 T00501014  RH  063%=      5-min Rain = 0
KDC1 230415Z 25013G18KT 05/M01 A2992 RMK A01 T00501013  RH  063%=      5-min Rain = 0
KDC1 230416Z 25012KT 05/M01 A2992 RMK A01 T00501014  RH  063%=      5-min Rain = 0
KDC1 230417Z 26015G21KT 05/M02 A2993 RMK A01 T00501015  RH  063%=      5-min Rain = 0
KDC1 230418Z 26017G23KT 05/M02 A2993 RMK A01 T00501015  RH  063%=      5-min Rain = 0
KDC1 230419Z 26015KT 05/M02 A2993 RMK A01 T00501015  RH  063%=      5-min Rain = 0
KDC1 230420Z 26014KT 05/M02 A2993 RMK A01 T00491015  RH  063%=      5-min Rain = 0
KDC1 230421Z 25012KT 05/M01 A2993 RMK A01 T00491014  RH  063%=      5-min Rain = 0
KDC1 230422Z 26014G21KT 05/M01 A2993 RMK A01 T00491014  RH  063%=      5-min Rain = 0
KDC1 230423Z 25016KT 05/M02 A2992 RMK A01 T00491017  RH  062%=      5-min Rain = 0
KDC1 230424Z 25016KT 05/M02 A2992 RMK A01 T00491018  RH  062%=      5-min Rain = 0
KDC1 230425Z 25014KT 05/M02 A2992 RMK A01 T00481018  RH  062%=      5-min Rain = 0
KDC1 230426Z 26014KT 05/M02 A2992 RMK A01 T00481017  RH  063%=      5-min Rain = 0
KDC1 230427Z 26015KT 05/M02 A2992 RMK A01 T00481019  RH  062%=      5-min Rain = 0
KDC1 230428Z 25012KT 05/M02 A2992 RMK A01 T00481018  RH  062%=      5-min Rain = 0
KDC1 230429Z 25015G22KT 05/M02 A2992 RMK A01 T00481019  RH  062%=      5-min Rain = 0
KDC1 230430Z 26015KT 05/M02 A2992 RMK A01 T00481020  RH  061%=      5-min Rain = 0
KDC1 230431Z 25013G18KT 05/M02 A2992 RMK A01 T00481020  RH  061%=      5-min Rain = 0
KDC1 230432Z 26015G20KT 05/M02 A2992 RMK A01 T00481020  RH  062%=      5-min Rain = 0
KDC1 230433Z 25015KT 05/M02 A2992 RMK A01 T00481021  RH  061%=      5-min Rain = 0
KDC1 230434Z 25015KT 05/M02 A2992 RMK A01 T00471021  RH  061%=      5-min Rain = 0
KDC1 230435Z 25011KT 05/M02 A2992 RMK A01 T00471020  RH  062%=      5-min Rain = 0
KDC1 230436Z 25013KT 05/M02 A2992 RMK A01 T00471020  RH  062%=      5-min Rain = 0
KDC1 230437Z 26018KT 05/M02 A2992 RMK A01 T00471021  RH  061%=      5-min Rain = 0
KDC1 230438Z 26017KT 05/M02 A2992 RMK A01 T00471022  RH  061%=      5-min Rain = 0
KDC1 230439Z 25014KT 05/M02 A2992 RMK A01 T00471022  RH  061%=      5-min Rain = 0
KDC1 230440Z 25011KT 05/M02 A2992 RMK A01 T00471021  RH  062%=      5-min Rain = 0
KDC1 230441Z 25015KT 05/M02 A2993 RMK A01 T00471022  RH  061%=      5-min Rain = 0
KDC1 230442Z 25015KT 05/M02 A2992 RMK A01 T00471022  RH  061%=      5-min Rain = 0
KDC1 230443Z 25015G20KT 05/M02 A2993 RMK A01 T00471022  RH  061%=      5-min Rain = 0
KDC1 230444Z 25017KT 05/M02 A2993 RMK A01 T00471023  RH  061%=      5-min Rain = 0
KDC1 230445Z 25018KT 05/M02 A2993 RMK A01 T00471024  RH  060%=      5-min Rain = 0
KDC1 230446Z 26017G22KT 05/M02 A2993 RMK A01 T00471024  RH  060%=      5-min Rain = 0
KDC1 230447Z 26019KT 05/M02 A2993 RMK A01 T00471024  RH  060%=      5-min Rain = 0
KDC1 230448Z 26019KT 05/M02 A2993 RMK A01 T00471024  RH  060%=      5-min Rain = 0
KDC1 230449Z 26017G22KT 05/M02 A2993 RMK A01 T00481024  RH  060%=      5-min Rain = 0
KDC1 230450Z 26022KT 05/M03 A2992 RMK A01 T00481025  RH  059%=      5-min Rain = 0
KDC1 230451Z 25019G26KT 05/M03 A2992 RMK A01 T00481026  RH  059%=      5-min Rain = 0
KDC1 230452Z 25019G24KT 05/M03 A2992 RMK A01 T00491026  RH  059%=      5-min Rain = 0
KDC1 230453Z 25018G24KT 05/M03 A2992 RMK A01 T00491027  RH  058%=      5-min Rain = 0
KDC1 230454Z 25017KT 05/M03 A2992 RMK A01 T00491028  RH  057%=      5-min Rain = 0
KDC1 230455Z 25015KT 05/M03 A2992 RMK A01 T00491026  RH  058%=      5-min Rain = 0
KDC1 230456Z 24015G25KT 05/M03 A2992 RMK A01 T00491025  RH  059%=      5-min Rain = 0
KDC1 230457Z 25020G25KT 05/M03 A2992 RMK A01 T00491028  RH  057%=      5-min Rain = 0
KDC1 230458Z 25016KT 05/M03 A2992 RMK A01 T00501029  RH  057%=      5-min Rain = 0
KDC1 230459Z 25015G21KT 05/M03 A2992 RMK A01 T00501028  RH  057%=      5-min Rain = 0
KDC1 230500Z 26015G20KT 05/M03 A2992 RMK A01 T00501025  RH  058%=      5-min Rain = 0
KDC1 230501Z 25021KT 05/M02 A2992 RMK A01 T00501024  RH  059%=      5-min Rain = 0
KDC1 230502Z 25017G22KT 05/M02 A2992 RMK A01 T00501024  RH  059%=      5-min Rain = 0
KDC1 230503Z 25018G25KT 05/M02 A2992 RMK A01 T00491023  RH  059%=      5-min Rain = 0
KDC1 230504Z 25018G23KT 05/M02 A2992 RMK A01 T00491024  RH  059%=      5-min Rain = 0
KDC1 230505Z 24015KT 05/M02 A2992 RMK A01 T00491023  RH  060%=      5-min Rain = 0
KDC1 230506Z 25018KT 05/M02 A2992 RMK A01 T00481023  RH  060%=      5-min Rain = 0
KDC1 230507Z 24017G22KT 05/M02 A2992 RMK A01 T00481023  RH  060%=      5-min Rain = 0
KDC1 230508Z 25014G19KT 05/M02 A2992 RMK A01 T00481023  RH  060%=      5-min Rain = 0
KDC1 230509Z 24018KT 05/M02 A2992 RMK A01 T00481023  RH  060%=      5-min Rain = 0
KDC1 230510Z 25016G22KT 05/M02 A2992 RMK A01 T00481023  RH  060%=      5-min Rain = 0
KDC1 230511Z 24011G16KT 05/M02 A2992 RMK A01 T00481023  RH  060%=      5-min Rain = 0
KDC1 230512Z 25015KT 05/M02 A2991 RMK A01 T00481023  RH  060%=      5-min Rain = 0
KDC1 230513Z 25017KT 05/M02 A2991 RMK A01 T00481024  RH  060%=      5-min Rain = 0
KDC1 230514Z 25018KT 05/M02 A2991 RMK A01 T00481024  RH  060%=      5-min Rain = 0
KDC1 230515Z 24015KT 05/M03 A2992 RMK A01 T00481025  RH  059%=      5-min Rain = 0
KDC1 230516Z 24015G20KT 05/M03 A2992 RMK A01 T00481025  RH  059%=      5-min Rain = 0
KDC1 230517Z 25019G24KT 05/M03 A2992 RMK A01 T00481025  RH  059%=      5-min Rain = 0
KDC1 230518Z 25018KT 05/M02 A2992 RMK A01 T00481024  RH  059%=      5-min Rain = 0
KDC1 230519Z 25014G19KT 05/M02 A2992 RMK A01 T00481024  RH  060%=      5-min Rain = 0
KDC1 230520Z 24015KT 05/M03 A2992 RMK A01 T00481026  RH  058%=      5-min Rain = 0
KDC1 230521Z 24014KT 05/M03 A2992 RMK A01 T00491027  RH  058%=      5-min Rain = 0
KDC1 230522Z 25014KT 05/M03 A2992 RMK A01 T00491027  RH  058%=      5-min Rain = 0
KDC1 230523Z 24012KT 05/M03 A2992 RMK A01 T00491027  RH  058%=      5-min Rain = 0
KDC1 230524Z 24016G22KT 05/M03 A2991 RMK A01 T00491028  RH  057%=      5-min Rain = 0
KDC1 230525Z 24014KT 05/M03 A2992 RMK A01 T00491028  RH  057%=      5-min Rain = 0
KDC1 230526Z 23012G17KT 05/M03 A2992 RMK A01 T00491028  RH  057%=      5-min Rain = 0
KDC1 230527Z 24017G23KT 05/M03 A2992 RMK A01 T00491029  RH  057%=      5-min Rain = 0
KDC1 230528Z 23012KT 05/M03 A2992 RMK A01 T00491028  RH  057%=      5-min Rain = 0
KDC1 230529Z 23009G16KT 05/M03 A2992 RMK A01 T00491027  RH  058%=      5-min Rain = 0
KDC1 230530Z 23012G17KT 05/M03 A2992 RMK A01 T00491026  RH  058%=      5-min Rain = 0
KDC1 230531Z 24014KT 05/M03 A2992 RMK A01 T00491026  RH  058%=      5-min Rain = 0
KDC1 230532Z 23012KT 05/M03 A2992 RMK A01 T00491026  RH  058%=      5-min Rain = 0
KDC1 230533Z 23011G19KT 05/M03 A2992 RMK A01 T00481025  RH  059%=      5-min Rain = 0
KDC1 230534Z 23012G17KT 05/M02 A2992 RMK A01 T00481023  RH  060%=      5-min Rain = 0
KDC1 230535Z 23011G16KT 05/M02 A2992 RMK A01 T00471022  RH  061%=      5-min Rain = 0
KDC1 230536Z 23012G17KT 05/M02 A2992 RMK A01 T00471021  RH  061%=      5-min Rain = 0
KDC1 230537Z 22008G13KT 05/M02 A2992 RMK A01 T00461020  RH  062%=      5-min Rain = 0
KDC1 230538Z 22009G14KT 05/M02 A2992 RMK A01 T00461019  RH  063%=      5-min Rain = 0
KDC1 230539Z 22009G15KT 05/M02 A2992 RMK A01 T00461016  RH  064%=      5-min Rain = 0
KDC1 230540Z 21007G14KT 05/M01 A2992 RMK A01 T00451013  RH  066%=      5-min Rain = 0
KDC1 230541Z 22009G14KT 04/M01 A2992 RMK A01 T00441011  RH  068%=      5-min Rain = 0
KDC1 230542Z 22009G14KT 04/M01 A2992 RMK A01 T00421009  RH  069%=      5-min Rain = 0
KDC1 230543Z 22009KT 04/M01 A2992 RMK A01 T00411009  RH  070%=      5-min Rain = 0
KDC1 230544Z 22006KT 04/M01 A2992 RMK A01 T00411008  RH  070%=      5-min Rain = 0
KDC1 230545Z 22009KT 04/M01 A2992 RMK A01 T00401008  RH  071%=      5-min Rain = 0
KDC1 230546Z 21008G14KT 04/M01 A2992 RMK A01 T00401009  RH  071%=      5-min Rain = 0
KDC1 230547Z 22008G15KT 04/M01 A2992 RMK A01 T00401009  RH  070%=      5-min Rain = 0
KDC1 230548Z 23008KT 04/M01 A2992 RMK A01 T00401009  RH  071%=      5-min Rain = 0
KDC1 230549Z 22008KT 04/M01 A2992 RMK A01 T00401009  RH  070%=      5-min Rain = 0
KDC1 230550Z 23008KT 04/M01 A2992 RMK A01 T00401009  RH  070%=      5-min Rain = 0
KDC1 230551Z 23010G15KT 04/M01 A2992 RMK A01 T00401010  RH  070%=      5-min Rain = 0
KDC1 230552Z 22010G15KT 04/M01 A2993 RMK A01 T00401010  RH  070%=      5-min Rain = 0
KDC1 230553Z 23009G14KT 04/M01 A2993 RMK A01 T00391010  RH  070%=      5-min Rain = 0
KDC1 230554Z 24009G14KT 04/M01 A2993 RMK A01 T00391011  RH  069%=      5-min Rain = 0
KDC1 230555Z 23009KT 04/M01 A2993 RMK A01 T00401012  RH  069%=      5-min Rain = 0
KDC1 230556Z 23008KT 04/M01 A2993 RMK A01 T00401012  RH  069%=      5-min Rain = 0
KDC1 230557Z 23010G15KT 04/M01 A2993 RMK A01 T00401012  RH  069%=      5-min Rain = 0
KDC1 230558Z 23009KT 04/M01 A2993 RMK A01 T00401012  RH  069%=      5-min Rain = 0
KDC1 230559Z 24012G19KT 04/M01 A2993 RMK A01 T00401012  RH  069%=      5-min Rain = 0

Page generated in 0.1459 seconds.